<?xml version="1.0" encoding="UTF-8" standalone="no" ?>
<gpx xmlns="http://www.topografix.com/GPX/1/1" xmlns:xsi="http://www.w3.org/2001/XMLSchema-instance" xsi:schemaLocation="http://www.topografix.com/GPX/1/1 http://www.topografix.com/GPX/1/1/gpx.xsd" version="1.1" creator="VisuGPX - https://www.visugpx.com">
  <metadata>
    <name>Tour de Paladru en VTT</name>
    <desc><![CDATA[Ballade VTT autour du lac de Paladru]]></desc>
  </metadata>
  <trk>
    <name><![CDATA[(c) UtagawaVTT.com]]></name>
    <trkseg>
      <trkpt lat="45.43313" lon="5.5149">
        <ele>502.906738</ele>
        <time>2007-09-09T06:28:02Z</time>
      </trkpt>
      <trkpt lat="45.43311" lon="5.51534">
        <ele>500.984131</ele>
        <time>2007-09-09T06:28:08Z</time>
      </trkpt>
      <trkpt lat="45.43311" lon="5.51577">
        <ele>498.580933</ele>
        <time>2007-09-09T06:28:14Z</time>
      </trkpt>
      <trkpt lat="45.43311" lon="5.51609">
        <ele>498.100342</ele>
        <time>2007-09-09T06:30:02Z</time>
      </trkpt>
      <trkpt lat="45.43311" lon="5.51646">
        <ele>498.100342</ele>
        <time>2007-09-09T06:30:09Z</time>
      </trkpt>
      <trkpt lat="45.43315" lon="5.51687">
        <ele>497.619629</ele>
        <time>2007-09-09T06:30:15Z</time>
      </trkpt>
      <trkpt lat="45.43311" lon="5.51731">
        <ele>498.100342</ele>
        <time>2007-09-09T06:30:21Z</time>
      </trkpt>
      <trkpt lat="45.43304" lon="5.51768">
        <ele>498.100342</ele>
        <time>2007-09-09T06:30:26Z</time>
      </trkpt>
      <trkpt lat="45.43285" lon="5.51801">
        <ele>498.580933</ele>
        <time>2007-09-09T06:30:32Z</time>
      </trkpt>
      <trkpt lat="45.43255" lon="5.51806">
        <ele>497.619629</ele>
        <time>2007-09-09T06:30:38Z</time>
      </trkpt>
      <trkpt lat="45.43234" lon="5.51837">
        <ele>498.100342</ele>
        <time>2007-09-09T06:30:45Z</time>
      </trkpt>
      <trkpt lat="45.43224" lon="5.51875">
        <ele>498.580933</ele>
        <time>2007-09-09T06:30:53Z</time>
      </trkpt>
      <trkpt lat="45.43211" lon="5.51914">
        <ele>500.022949</ele>
        <time>2007-09-09T06:31:03Z</time>
      </trkpt>
      <trkpt lat="45.43187" lon="5.51935">
        <ele>502.426148</ele>
        <time>2007-09-09T06:31:14Z</time>
      </trkpt>
      <trkpt lat="45.43162" lon="5.51952">
        <ele>504.348877</ele>
        <time>2007-09-09T06:31:23Z</time>
      </trkpt>
      <trkpt lat="45.43136" lon="5.51967">
        <ele>506.752075</ele>
        <time>2007-09-09T06:31:32Z</time>
      </trkpt>
      <trkpt lat="45.43108" lon="5.51982">
        <ele>510.59729</ele>
        <time>2007-09-09T06:31:42Z</time>
      </trkpt>
      <trkpt lat="45.43058" lon="5.52026">
        <ele>512.039429</ele>
        <time>2007-09-09T06:32:02Z</time>
      </trkpt>
      <trkpt lat="45.4303" lon="5.52048">
        <ele>513.000732</ele>
        <time>2007-09-09T06:32:12Z</time>
      </trkpt>
      <trkpt lat="45.43005" lon="5.52067">
        <ele>515.404053</ele>
        <time>2007-09-09T06:32:23Z</time>
      </trkpt>
      <trkpt lat="45.42981" lon="5.52088">
        <ele>516.845947</ele>
        <time>2007-09-09T06:32:34Z</time>
      </trkpt>
      <trkpt lat="45.42958" lon="5.5211">
        <ele>520.691284</ele>
        <time>2007-09-09T06:32:47Z</time>
      </trkpt>
      <trkpt lat="45.42943" lon="5.52149">
        <ele>525.497803</ele>
        <time>2007-09-09T06:32:59Z</time>
      </trkpt>
      <trkpt lat="45.42925" lon="5.52183">
        <ele>529.34314</ele>
        <time>2007-09-09T06:33:11Z</time>
      </trkpt>
      <trkpt lat="45.42899" lon="5.52204">
        <ele>532.227051</ele>
        <time>2007-09-09T06:33:23Z</time>
      </trkpt>
      <trkpt lat="45.4289" lon="5.52237">
        <ele>537.514282</ele>
        <time>2007-09-09T06:33:38Z</time>
      </trkpt>
      <trkpt lat="45.42896" lon="5.52276">
        <ele>543.282104</ele>
        <time>2007-09-09T06:33:58Z</time>
      </trkpt>
      <trkpt lat="45.42899" lon="5.5232">
        <ele>548.088867</ele>
        <time>2007-09-09T06:34:19Z</time>
      </trkpt>
      <trkpt lat="45.42889" lon="5.52364">
        <ele>555.298584</ele>
        <time>2007-09-09T06:34:40Z</time>
      </trkpt>
      <trkpt lat="45.42859" lon="5.52379">
        <ele>554.817871</ele>
        <time>2007-09-09T06:34:47Z</time>
      </trkpt>
      <trkpt lat="45.42828" lon="5.524">
        <ele>554.337402</ele>
        <time>2007-09-09T06:34:53Z</time>
      </trkpt>
      <trkpt lat="45.42756" lon="5.52481">
        <ele>555.779297</ele>
        <time>2007-09-09T06:35:15Z</time>
      </trkpt>
      <trkpt lat="45.42735" lon="5.52513">
        <ele>555.779297</ele>
        <time>2007-09-09T06:35:21Z</time>
      </trkpt>
      <trkpt lat="45.42715" lon="5.52546">
        <ele>554.817871</ele>
        <time>2007-09-09T06:35:27Z</time>
      </trkpt>
      <trkpt lat="45.42694" lon="5.52577">
        <ele>555.779297</ele>
        <time>2007-09-09T06:35:33Z</time>
      </trkpt>
      <trkpt lat="45.42672" lon="5.5261">
        <ele>556.26001</ele>
        <time>2007-09-09T06:35:39Z</time>
      </trkpt>
      <trkpt lat="45.4265" lon="5.5264">
        <ele>557.221435</ele>
        <time>2007-09-09T06:35:45Z</time>
      </trkpt>
      <trkpt lat="45.42628" lon="5.52667">
        <ele>558.66333</ele>
        <time>2007-09-09T06:35:51Z</time>
      </trkpt>
      <trkpt lat="45.42609" lon="5.52699">
        <ele>560.105225</ele>
        <time>2007-09-09T06:35:58Z</time>
      </trkpt>
      <trkpt lat="45.42592" lon="5.5273">
        <ele>563.95044</ele>
        <time>2007-09-09T06:36:08Z</time>
      </trkpt>
      <trkpt lat="45.42567" lon="5.52754">
        <ele>564.431152</ele>
        <time>2007-09-09T06:36:18Z</time>
      </trkpt>
      <trkpt lat="45.42538" lon="5.5277">
        <ele>562.028076</ele>
        <time>2007-09-09T06:36:23Z</time>
      </trkpt>
      <trkpt lat="45.42512" lon="5.52784">
        <ele>560.585938</ele>
        <time>2007-09-09T06:36:27Z</time>
      </trkpt>
      <trkpt lat="45.42483" lon="5.52806">
        <ele>559.624756</ele>
        <time>2007-09-09T06:36:32Z</time>
      </trkpt>
      <trkpt lat="45.42435" lon="5.52856">
        <ele>558.66333</ele>
        <time>2007-09-09T06:36:41Z</time>
      </trkpt>
      <trkpt lat="45.42407" lon="5.5288">
        <ele>558.182861</ele>
        <time>2007-09-09T06:36:45Z</time>
      </trkpt>
      <trkpt lat="45.42378" lon="5.52903">
        <ele>558.182861</ele>
        <time>2007-09-09T06:36:49Z</time>
      </trkpt>
      <trkpt lat="45.42337" lon="5.52977">
        <ele>556.740723</ele>
        <time>2007-09-09T06:36:56Z</time>
      </trkpt>
      <trkpt lat="45.42317" lon="5.53006">
        <ele>555.298584</ele>
        <time>2007-09-09T06:36:59Z</time>
      </trkpt>
      <trkpt lat="45.42288" lon="5.53036">
        <ele>553.85669</ele>
        <time>2007-09-09T06:37:03Z</time>
      </trkpt>
      <trkpt lat="45.4226" lon="5.53066">
        <ele>553.375977</ele>
        <time>2007-09-09T06:37:07Z</time>
      </trkpt>
      <trkpt lat="45.42237" lon="5.53093">
        <ele>551.934082</ele>
        <time>2007-09-09T06:37:11Z</time>
      </trkpt>
      <trkpt lat="45.42222" lon="5.53131">
        <ele>551.934082</ele>
        <time>2007-09-09T06:37:16Z</time>
      </trkpt>
      <trkpt lat="45.42216" lon="5.53174">
        <ele>552.895264</ele>
        <time>2007-09-09T06:37:22Z</time>
      </trkpt>
      <trkpt lat="45.42207" lon="5.53214">
        <ele>554.337402</ele>
        <time>2007-09-09T06:37:29Z</time>
      </trkpt>
      <trkpt lat="45.42193" lon="5.5325">
        <ele>556.740723</ele>
        <time>2007-09-09T06:37:36Z</time>
      </trkpt>
      <trkpt lat="45.42182" lon="5.53285">
        <ele>560.105225</ele>
        <time>2007-09-09T06:37:44Z</time>
      </trkpt>
      <trkpt lat="45.42176" lon="5.53326">
        <ele>561.547363</ele>
        <time>2007-09-09T06:37:53Z</time>
      </trkpt>
      <trkpt lat="45.42175" lon="5.53368">
        <ele>562.028076</ele>
        <time>2007-09-09T06:38:02Z</time>
      </trkpt>
      <trkpt lat="45.42174" lon="5.53409">
        <ele>562.508545</ele>
        <time>2007-09-09T06:38:10Z</time>
      </trkpt>
      <trkpt lat="45.4217" lon="5.5345">
        <ele>562.508545</ele>
        <time>2007-09-09T06:38:17Z</time>
      </trkpt>
      <trkpt lat="45.42168" lon="5.5349">
        <ele>561.06665</ele>
        <time>2007-09-09T06:38:23Z</time>
      </trkpt>
      <trkpt lat="45.42166" lon="5.53533">
        <ele>559.144043</ele>
        <time>2007-09-09T06:38:29Z</time>
      </trkpt>
      <trkpt lat="45.42164" lon="5.53574">
        <ele>559.144043</ele>
        <time>2007-09-09T06:38:35Z</time>
      </trkpt>
      <trkpt lat="45.42167" lon="5.53615">
        <ele>558.182861</ele>
        <time>2007-09-09T06:38:42Z</time>
      </trkpt>
      <trkpt lat="45.42182" lon="5.5365">
        <ele>558.182861</ele>
        <time>2007-09-09T06:38:49Z</time>
      </trkpt>
      <trkpt lat="45.42195" lon="5.53686">
        <ele>559.624756</ele>
        <time>2007-09-09T06:38:56Z</time>
      </trkpt>
      <trkpt lat="45.42207" lon="5.53725">
        <ele>561.547363</ele>
        <time>2007-09-09T06:39:03Z</time>
      </trkpt>
      <trkpt lat="45.42221" lon="5.53762">
        <ele>561.547363</ele>
        <time>2007-09-09T06:39:09Z</time>
      </trkpt>
      <trkpt lat="45.42212" lon="5.53808">
        <ele>561.547363</ele>
        <time>2007-09-09T06:39:14Z</time>
      </trkpt>
      <trkpt lat="45.42198" lon="5.53843">
        <ele>561.547363</ele>
        <time>2007-09-09T06:39:18Z</time>
      </trkpt>
      <trkpt lat="45.42188" lon="5.53882">
        <ele>562.989258</ele>
        <time>2007-09-09T06:39:23Z</time>
      </trkpt>
      <trkpt lat="45.42183" lon="5.53923">
        <ele>564.431152</ele>
        <time>2007-09-09T06:39:29Z</time>
      </trkpt>
      <trkpt lat="45.42181" lon="5.53962">
        <ele>566.35376</ele>
        <time>2007-09-09T06:39:36Z</time>
      </trkpt>
      <trkpt lat="45.42205" lon="5.53967">
        <ele>567.795654</ele>
        <time>2007-09-09T06:39:44Z</time>
      </trkpt>
      <trkpt lat="45.42233" lon="5.53953">
        <ele>567.795654</ele>
        <time>2007-09-09T06:39:51Z</time>
      </trkpt>
      <trkpt lat="45.42257" lon="5.53968">
        <ele>567.795654</ele>
        <time>2007-09-09T06:39:59Z</time>
      </trkpt>
      <trkpt lat="45.42271" lon="5.54007">
        <ele>568.75708</ele>
        <time>2007-09-09T06:40:08Z</time>
      </trkpt>
      <trkpt lat="45.42286" lon="5.5404">
        <ele>569.237793</ele>
        <time>2007-09-09T06:40:17Z</time>
      </trkpt>
      <trkpt lat="45.42302" lon="5.54074">
        <ele>571.1604</ele>
        <time>2007-09-09T06:40:27Z</time>
      </trkpt>
      <trkpt lat="45.42317" lon="5.54109">
        <ele>569.718506</ele>
        <time>2007-09-09T06:40:37Z</time>
      </trkpt>
      <trkpt lat="45.42355" lon="5.54175">
        <ele>574.044434</ele>
        <time>2007-09-09T06:40:59Z</time>
      </trkpt>
      <trkpt lat="45.4238" lon="5.54206">
        <ele>576.447754</ele>
        <time>2007-09-09T06:41:09Z</time>
      </trkpt>
      <trkpt lat="45.42403" lon="5.54236">
        <ele>577.40918</ele>
        <time>2007-09-09T06:41:19Z</time>
      </trkpt>
      <trkpt lat="45.42429" lon="5.5426">
        <ele>576.928467</ele>
        <time>2007-09-09T06:41:29Z</time>
      </trkpt>
      <trkpt lat="45.42456" lon="5.54282">
        <ele>577.40918</ele>
        <time>2007-09-09T06:41:39Z</time>
      </trkpt>
      <trkpt lat="45.4248" lon="5.54303">
        <ele>578.370361</ele>
        <time>2007-09-09T06:41:48Z</time>
      </trkpt>
      <trkpt lat="45.42507" lon="5.54324">
        <ele>581.734863</ele>
        <time>2007-09-09T06:41:58Z</time>
      </trkpt>
      <trkpt lat="45.42534" lon="5.54338">
        <ele>585.099609</ele>
        <time>2007-09-09T06:42:08Z</time>
      </trkpt>
      <trkpt lat="45.42563" lon="5.54337">
        <ele>588.464356</ele>
        <time>2007-09-09T06:42:19Z</time>
      </trkpt>
      <trkpt lat="45.42593" lon="5.54343">
        <ele>591.348144</ele>
        <time>2007-09-09T06:42:33Z</time>
      </trkpt>
      <trkpt lat="45.42621" lon="5.54358">
        <ele>594.232178</ele>
        <time>2007-09-09T06:42:46Z</time>
      </trkpt>
      <trkpt lat="45.42648" lon="5.54371">
        <ele>597.115967</ele>
        <time>2007-09-09T06:42:58Z</time>
      </trkpt>
      <trkpt lat="45.42674" lon="5.54381">
        <ele>600.480713</ele>
        <time>2007-09-09T06:43:11Z</time>
      </trkpt>
      <trkpt lat="45.42703" lon="5.54389">
        <ele>603.845215</ele>
        <time>2007-09-09T06:43:25Z</time>
      </trkpt>
      <trkpt lat="45.42732" lon="5.54396">
        <ele>608.171387</ele>
        <time>2007-09-09T06:43:40Z</time>
      </trkpt>
      <trkpt lat="45.4276" lon="5.54401">
        <ele>611.055176</ele>
        <time>2007-09-09T06:43:58Z</time>
      </trkpt>
      <trkpt lat="45.42789" lon="5.54406">
        <ele>611.535889</ele>
        <time>2007-09-09T06:44:16Z</time>
      </trkpt>
      <trkpt lat="45.42818" lon="5.54413">
        <ele>613.938965</ele>
        <time>2007-09-09T06:44:32Z</time>
      </trkpt>
      <trkpt lat="45.42845" lon="5.54419">
        <ele>617.78418</ele>
        <time>2007-09-09T06:44:49Z</time>
      </trkpt>
      <trkpt lat="45.42873" lon="5.5441">
        <ele>618.745606</ele>
        <time>2007-09-09T06:45:07Z</time>
      </trkpt>
      <trkpt lat="45.42896" lon="5.54383">
        <ele>624.513672</ele>
        <time>2007-09-09T06:45:27Z</time>
      </trkpt>
      <trkpt lat="45.42924" lon="5.54375">
        <ele>626.916992</ele>
        <time>2007-09-09T06:45:44Z</time>
      </trkpt>
      <trkpt lat="45.42955" lon="5.54375">
        <ele>627.878174</ele>
        <time>2007-09-09T06:46:02Z</time>
      </trkpt>
      <trkpt lat="45.42984" lon="5.54369">
        <ele>632.684815</ele>
        <time>2007-09-09T06:46:16Z</time>
      </trkpt>
      <trkpt lat="45.43015" lon="5.54363">
        <ele>635.088135</ele>
        <time>2007-09-09T06:46:32Z</time>
      </trkpt>
      <trkpt lat="45.43044" lon="5.54348">
        <ele>637.972168</ele>
        <time>2007-09-09T06:46:47Z</time>
      </trkpt>
      <trkpt lat="45.43071" lon="5.54333">
        <ele>640.375488</ele>
        <time>2007-09-09T06:47:00Z</time>
      </trkpt>
      <trkpt lat="45.43098" lon="5.54314">
        <ele>640.375488</ele>
        <time>2007-09-09T06:47:09Z</time>
      </trkpt>
      <trkpt lat="45.43123" lon="5.54296">
        <ele>641.817383</ele>
        <time>2007-09-09T06:47:19Z</time>
      </trkpt>
      <trkpt lat="45.43147" lon="5.54276">
        <ele>644.701172</ele>
        <time>2007-09-09T06:47:31Z</time>
      </trkpt>
      <trkpt lat="45.43197" lon="5.54237">
        <ele>647.104492</ele>
        <time>2007-09-09T06:48:00Z</time>
      </trkpt>
      <trkpt lat="45.43221" lon="5.54216">
        <ele>647.104492</ele>
        <time>2007-09-09T06:48:17Z</time>
      </trkpt>
      <trkpt lat="45.43243" lon="5.5419">
        <ele>647.104492</ele>
        <time>2007-09-09T06:48:33Z</time>
      </trkpt>
      <trkpt lat="45.4338" lon="5.54109">
        <ele>647.585205</ele>
        <time>2007-09-09T06:50:33Z</time>
      </trkpt>
      <trkpt lat="45.43413" lon="5.54105">
        <ele>648.546387</ele>
        <time>2007-09-09T06:50:56Z</time>
      </trkpt>
      <trkpt lat="45.43474" lon="5.54134">
        <ele>656.23706</ele>
        <time>2007-09-09T06:51:42Z</time>
      </trkpt>
      <trkpt lat="45.43503" lon="5.54136">
        <ele>661.524414</ele>
        <time>2007-09-09T06:52:08Z</time>
      </trkpt>
      <trkpt lat="45.43534" lon="5.54142">
        <ele>666.811523</ele>
        <time>2007-09-09T06:52:32Z</time>
      </trkpt>
      <trkpt lat="45.43574" lon="5.54202">
        <ele>673.060303</ele>
        <time>2007-09-09T06:52:54Z</time>
      </trkpt>
      <trkpt lat="45.43591" lon="5.542">
        <ele>681.231445</ele>
        <time>2007-09-09T06:53:12Z</time>
      </trkpt>
      <trkpt lat="45.43619" lon="5.54213">
        <ele>688.441406</ele>
        <time>2007-09-09T06:53:29Z</time>
      </trkpt>
      <trkpt lat="45.43648" lon="5.54224">
        <ele>690.364014</ele>
        <time>2007-09-09T06:53:42Z</time>
      </trkpt>
      <trkpt lat="45.43678" lon="5.54231">
        <ele>693.728516</ele>
        <time>2007-09-09T06:53:54Z</time>
      </trkpt>
      <trkpt lat="45.43707" lon="5.54232">
        <ele>696.612549</ele>
        <time>2007-09-09T06:54:03Z</time>
      </trkpt>
      <trkpt lat="45.43736" lon="5.54234">
        <ele>699.015625</ele>
        <time>2007-09-09T06:54:12Z</time>
      </trkpt>
      <trkpt lat="45.43764" lon="5.54233">
        <ele>702.380371</ele>
        <time>2007-09-09T06:54:22Z</time>
      </trkpt>
      <trkpt lat="45.43792" lon="5.54221">
        <ele>704.783691</ele>
        <time>2007-09-09T06:54:33Z</time>
      </trkpt>
      <trkpt lat="45.43817" lon="5.54201">
        <ele>707.187012</ele>
        <time>2007-09-09T06:54:45Z</time>
      </trkpt>
      <trkpt lat="45.43838" lon="5.54174">
        <ele>710.551514</ele>
        <time>2007-09-09T06:54:58Z</time>
      </trkpt>
      <trkpt lat="45.4386" lon="5.54154">
        <ele>713.435547</ele>
        <time>2007-09-09T06:55:11Z</time>
      </trkpt>
      <trkpt lat="45.43884" lon="5.54137">
        <ele>716.31958</ele>
        <time>2007-09-09T06:55:23Z</time>
      </trkpt>
      <trkpt lat="45.43909" lon="5.54122">
        <ele>718.7229</ele>
        <time>2007-09-09T06:55:36Z</time>
      </trkpt>
      <trkpt lat="45.43926" lon="5.54196">
        <ele>722.568115</ele>
        <time>2007-09-09T06:56:03Z</time>
      </trkpt>
      <trkpt lat="45.43922" lon="5.54238">
        <ele>725.451904</ele>
        <time>2007-09-09T06:56:14Z</time>
      </trkpt>
      <trkpt lat="45.43923" lon="5.54278">
        <ele>726.894043</ele>
        <time>2007-09-09T06:56:24Z</time>
      </trkpt>
      <trkpt lat="45.43924" lon="5.54317">
        <ele>728.81665</ele>
        <time>2007-09-09T06:56:34Z</time>
      </trkpt>
      <trkpt lat="45.4393" lon="5.54355">
        <ele>729.777832</ele>
        <time>2007-09-09T06:56:46Z</time>
      </trkpt>
      <trkpt lat="45.43936" lon="5.54441">
        <ele>728.81665</ele>
        <time>2007-09-09T06:57:06Z</time>
      </trkpt>
      <trkpt lat="45.43946" lon="5.54613">
        <ele>726.894043</ele>
        <time>2007-09-09T06:57:35Z</time>
      </trkpt>
      <trkpt lat="45.43954" lon="5.54664">
        <ele>726.894043</ele>
        <time>2007-09-09T06:57:41Z</time>
      </trkpt>
      <trkpt lat="45.43956" lon="5.5471">
        <ele>723.529541</ele>
        <time>2007-09-09T06:57:46Z</time>
      </trkpt>
      <trkpt lat="45.43909" lon="5.54803">
        <ele>718.7229</ele>
        <time>2007-09-09T06:57:51Z</time>
      </trkpt>
      <trkpt lat="45.43946" lon="5.54833">
        <ele>715.838867</ele>
        <time>2007-09-09T06:57:56Z</time>
      </trkpt>
      <trkpt lat="45.4395" lon="5.54867">
        <ele>714.396728</ele>
        <time>2007-09-09T06:58:01Z</time>
      </trkpt>
      <trkpt lat="45.43969" lon="5.549">
        <ele>709.590332</ele>
        <time>2007-09-09T06:58:07Z</time>
      </trkpt>
      <trkpt lat="45.4399" lon="5.54929">
        <ele>704.303223</ele>
        <time>2007-09-09T06:58:13Z</time>
      </trkpt>
      <trkpt lat="45.44007" lon="5.54962">
        <ele>702.380371</ele>
        <time>2007-09-09T06:58:19Z</time>
      </trkpt>
      <trkpt lat="45.4403" lon="5.54987">
        <ele>700.458008</ele>
        <time>2007-09-09T06:58:25Z</time>
      </trkpt>
      <trkpt lat="45.44059" lon="5.54995">
        <ele>698.054443</ele>
        <time>2007-09-09T06:58:30Z</time>
      </trkpt>
      <trkpt lat="45.44088" lon="5.5501">
        <ele>692.286621</ele>
        <time>2007-09-09T06:58:36Z</time>
      </trkpt>
      <trkpt lat="45.44116" lon="5.55031">
        <ele>684.596191</ele>
        <time>2007-09-09T06:58:42Z</time>
      </trkpt>
      <trkpt lat="45.44142" lon="5.55052">
        <ele>680.270019</ele>
        <time>2007-09-09T06:58:47Z</time>
      </trkpt>
      <trkpt lat="45.44164" lon="5.55078">
        <ele>674.502197</ele>
        <time>2007-09-09T06:58:52Z</time>
      </trkpt>
      <trkpt lat="45.44185" lon="5.55107">
        <ele>668.253662</ele>
        <time>2007-09-09T06:58:57Z</time>
      </trkpt>
      <trkpt lat="45.44207" lon="5.55138">
        <ele>663.447022</ele>
        <time>2007-09-09T06:59:03Z</time>
      </trkpt>
      <trkpt lat="45.44233" lon="5.55119">
        <ele>659.601807</ele>
        <time>2007-09-09T06:59:07Z</time>
      </trkpt>
      <trkpt lat="45.44257" lon="5.55099">
        <ele>654.795166</ele>
        <time>2007-09-09T06:59:10Z</time>
      </trkpt>
      <trkpt lat="45.44289" lon="5.55079">
        <ele>651.911133</ele>
        <time>2007-09-09T06:59:14Z</time>
      </trkpt>
      <trkpt lat="45.44319" lon="5.55072">
        <ele>649.988525</ele>
        <time>2007-09-09T06:59:18Z</time>
      </trkpt>
      <trkpt lat="45.44339" lon="5.55045">
        <ele>649.0271</ele>
        <time>2007-09-09T06:59:24Z</time>
      </trkpt>
      <trkpt lat="45.4436" lon="5.55014">
        <ele>647.104492</ele>
        <time>2007-09-09T06:59:31Z</time>
      </trkpt>
      <trkpt lat="45.44386" lon="5.55012">
        <ele>645.662598</ele>
        <time>2007-09-09T06:59:36Z</time>
      </trkpt>
      <trkpt lat="45.44409" lon="5.55032">
        <ele>643.259277</ele>
        <time>2007-09-09T06:59:41Z</time>
      </trkpt>
      <trkpt lat="45.44431" lon="5.55064">
        <ele>641.33667</ele>
        <time>2007-09-09T06:59:46Z</time>
      </trkpt>
      <trkpt lat="45.44451" lon="5.55098">
        <ele>639.414063</ele>
        <time>2007-09-09T06:59:51Z</time>
      </trkpt>
      <trkpt lat="45.44469" lon="5.55139">
        <ele>637.010742</ele>
        <time>2007-09-09T06:59:56Z</time>
      </trkpt>
      <trkpt lat="45.44485" lon="5.55174">
        <ele>634.126709</ele>
        <time>2007-09-09T07:00:00Z</time>
      </trkpt>
      <trkpt lat="45.4451" lon="5.55206">
        <ele>630.281494</ele>
        <time>2007-09-09T07:00:04Z</time>
      </trkpt>
      <trkpt lat="45.44544" lon="5.55216">
        <ele>627.878174</ele>
        <time>2007-09-09T07:00:08Z</time>
      </trkpt>
      <trkpt lat="45.44577" lon="5.55199">
        <ele>625.474853</ele>
        <time>2007-09-09T07:00:12Z</time>
      </trkpt>
      <trkpt lat="45.44598" lon="5.55174">
        <ele>624.513672</ele>
        <time>2007-09-09T07:00:15Z</time>
      </trkpt>
      <trkpt lat="45.4462" lon="5.55148">
        <ele>621.14917</ele>
        <time>2007-09-09T07:00:18Z</time>
      </trkpt>
      <trkpt lat="45.44652" lon="5.55143">
        <ele>620.187744</ele>
        <time>2007-09-09T07:00:22Z</time>
      </trkpt>
      <trkpt lat="45.4468" lon="5.55133">
        <ele>618.745606</ele>
        <time>2007-09-09T07:00:26Z</time>
      </trkpt>
      <trkpt lat="45.44709" lon="5.55108">
        <ele>615.861816</ele>
        <time>2007-09-09T07:00:30Z</time>
      </trkpt>
      <trkpt lat="45.44739" lon="5.55093">
        <ele>612.977783</ele>
        <time>2007-09-09T07:00:34Z</time>
      </trkpt>
      <trkpt lat="45.44758" lon="5.55065">
        <ele>610.574463</ele>
        <time>2007-09-09T07:00:37Z</time>
      </trkpt>
      <trkpt lat="45.44782" lon="5.55036">
        <ele>607.209961</ele>
        <time>2007-09-09T07:00:40Z</time>
      </trkpt>
      <trkpt lat="45.44807" lon="5.55014">
        <ele>604.806641</ele>
        <time>2007-09-09T07:00:43Z</time>
      </trkpt>
      <trkpt lat="45.44835" lon="5.55004">
        <ele>603.364502</ele>
        <time>2007-09-09T07:00:46Z</time>
      </trkpt>
      <trkpt lat="45.44866" lon="5.55006">
        <ele>602.403076</ele>
        <time>2007-09-09T07:00:49Z</time>
      </trkpt>
      <trkpt lat="45.44892" lon="5.55014">
        <ele>601.441894</ele>
        <time>2007-09-09T07:00:52Z</time>
      </trkpt>
      <trkpt lat="45.44917" lon="5.55023">
        <ele>600.961182</ele>
        <time>2007-09-09T07:00:57Z</time>
      </trkpt>
      <trkpt lat="45.44941" lon="5.55002">
        <ele>599.519287</ele>
        <time>2007-09-09T07:01:04Z</time>
      </trkpt>
      <trkpt lat="45.44969" lon="5.54996">
        <ele>598.557861</ele>
        <time>2007-09-09T07:01:09Z</time>
      </trkpt>
      <trkpt lat="45.45" lon="5.54987">
        <ele>598.557861</ele>
        <time>2007-09-09T07:01:14Z</time>
      </trkpt>
      <trkpt lat="45.45031" lon="5.5498">
        <ele>598.077393</ele>
        <time>2007-09-09T07:01:19Z</time>
      </trkpt>
      <trkpt lat="45.45062" lon="5.54969">
        <ele>598.077393</ele>
        <time>2007-09-09T07:01:24Z</time>
      </trkpt>
      <trkpt lat="45.45089" lon="5.54952">
        <ele>596.635498</ele>
        <time>2007-09-09T07:01:29Z</time>
      </trkpt>
      <trkpt lat="45.45111" lon="5.54921">
        <ele>596.154785</ele>
        <time>2007-09-09T07:01:34Z</time>
      </trkpt>
      <trkpt lat="45.45126" lon="5.54884">
        <ele>595.193359</ele>
        <time>2007-09-09T07:01:39Z</time>
      </trkpt>
      <trkpt lat="45.45144" lon="5.54855">
        <ele>594.712647</ele>
        <time>2007-09-09T07:01:44Z</time>
      </trkpt>
      <trkpt lat="45.45161" lon="5.54818">
        <ele>593.270752</ele>
        <time>2007-09-09T07:01:49Z</time>
      </trkpt>
      <trkpt lat="45.45175" lon="5.54776">
        <ele>592.30957</ele>
        <time>2007-09-09T07:01:54Z</time>
      </trkpt>
      <trkpt lat="45.4519" lon="5.54742">
        <ele>591.348144</ele>
        <time>2007-09-09T07:01:58Z</time>
      </trkpt>
      <trkpt lat="45.45208" lon="5.54713">
        <ele>590.867432</ele>
        <time>2007-09-09T07:02:02Z</time>
      </trkpt>
      <trkpt lat="45.45238" lon="5.54718">
        <ele>590.386963</ele>
        <time>2007-09-09T07:02:07Z</time>
      </trkpt>
      <trkpt lat="45.45265" lon="5.54731">
        <ele>589.90625</ele>
        <time>2007-09-09T07:02:12Z</time>
      </trkpt>
      <trkpt lat="45.45295" lon="5.54748">
        <ele>589.90625</ele>
        <time>2007-09-09T07:02:17Z</time>
      </trkpt>
      <trkpt lat="45.45327" lon="5.54761">
        <ele>589.90625</ele>
        <time>2007-09-09T07:02:22Z</time>
      </trkpt>
      <trkpt lat="45.4536" lon="5.54769">
        <ele>589.90625</ele>
        <time>2007-09-09T07:02:27Z</time>
      </trkpt>
      <trkpt lat="45.45388" lon="5.54776">
        <ele>589.425537</ele>
        <time>2007-09-09T07:02:31Z</time>
      </trkpt>
      <trkpt lat="45.45444" lon="5.54795">
        <ele>589.90625</ele>
        <time>2007-09-09T07:02:39Z</time>
      </trkpt>
      <trkpt lat="45.45497" lon="5.54829">
        <ele>589.90625</ele>
        <time>2007-09-09T07:02:47Z</time>
      </trkpt>
      <trkpt lat="45.4552" lon="5.54854">
        <ele>589.425537</ele>
        <time>2007-09-09T07:02:51Z</time>
      </trkpt>
      <trkpt lat="45.45573" lon="5.54865">
        <ele>587.983398</ele>
        <time>2007-09-09T07:02:59Z</time>
      </trkpt>
      <trkpt lat="45.45599" lon="5.54881">
        <ele>587.021973</ele>
        <time>2007-09-09T07:03:03Z</time>
      </trkpt>
      <trkpt lat="45.45623" lon="5.54905">
        <ele>586.060791</ele>
        <time>2007-09-09T07:03:07Z</time>
      </trkpt>
      <trkpt lat="45.45646" lon="5.54931">
        <ele>585.099609</ele>
        <time>2007-09-09T07:03:11Z</time>
      </trkpt>
      <trkpt lat="45.45687" lon="5.54982">
        <ele>586.060791</ele>
        <time>2007-09-09T07:03:19Z</time>
      </trkpt>
      <trkpt lat="45.4571" lon="5.55015">
        <ele>586.060791</ele>
        <time>2007-09-09T07:03:24Z</time>
      </trkpt>
      <trkpt lat="45.4573" lon="5.55043">
        <ele>586.541504</ele>
        <time>2007-09-09T07:03:29Z</time>
      </trkpt>
      <trkpt lat="45.45755" lon="5.55069">
        <ele>587.021973</ele>
        <time>2007-09-09T07:03:35Z</time>
      </trkpt>
      <trkpt lat="45.45781" lon="5.55092">
        <ele>586.541504</ele>
        <time>2007-09-09T07:03:41Z</time>
      </trkpt>
      <trkpt lat="45.45807" lon="5.5511">
        <ele>587.021973</ele>
        <time>2007-09-09T07:03:47Z</time>
      </trkpt>
      <trkpt lat="45.45833" lon="5.55121">
        <ele>587.021973</ele>
        <time>2007-09-09T07:03:53Z</time>
      </trkpt>
      <trkpt lat="45.4586" lon="5.55125">
        <ele>587.502685</ele>
        <time>2007-09-09T07:03:59Z</time>
      </trkpt>
      <trkpt lat="45.45886" lon="5.55129">
        <ele>588.945068</ele>
        <time>2007-09-09T07:04:05Z</time>
      </trkpt>
      <trkpt lat="45.45912" lon="5.55134">
        <ele>590.386963</ele>
        <time>2007-09-09T07:04:11Z</time>
      </trkpt>
      <trkpt lat="45.45936" lon="5.55159">
        <ele>591.348144</ele>
        <time>2007-09-09T07:04:18Z</time>
      </trkpt>
      <trkpt lat="45.45946" lon="5.55201">
        <ele>591.828857</ele>
        <time>2007-09-09T07:04:25Z</time>
      </trkpt>
      <trkpt lat="45.45949" lon="5.55242">
        <ele>592.790283</ele>
        <time>2007-09-09T07:04:32Z</time>
      </trkpt>
      <trkpt lat="45.45953" lon="5.55282">
        <ele>593.751465</ele>
        <time>2007-09-09T07:04:39Z</time>
      </trkpt>
      <trkpt lat="45.45959" lon="5.5532">
        <ele>594.712647</ele>
        <time>2007-09-09T07:04:46Z</time>
      </trkpt>
      <trkpt lat="45.4597" lon="5.55358">
        <ele>595.193359</ele>
        <time>2007-09-09T07:04:53Z</time>
      </trkpt>
      <trkpt lat="45.45985" lon="5.55392">
        <ele>596.635498</ele>
        <time>2007-09-09T07:05:00Z</time>
      </trkpt>
      <trkpt lat="45.45999" lon="5.55428">
        <ele>597.59668</ele>
        <time>2007-09-09T07:05:07Z</time>
      </trkpt>
      <trkpt lat="45.46005" lon="5.55466">
        <ele>597.59668</ele>
        <time>2007-09-09T07:05:14Z</time>
      </trkpt>
      <trkpt lat="45.46005" lon="5.55505">
        <ele>600</ele>
        <time>2007-09-09T07:05:21Z</time>
      </trkpt>
      <trkpt lat="45.46004" lon="5.55544">
        <ele>600.961182</ele>
        <time>2007-09-09T07:05:28Z</time>
      </trkpt>
      <trkpt lat="45.46001" lon="5.55586">
        <ele>601.922607</ele>
        <time>2007-09-09T07:05:35Z</time>
      </trkpt>
      <trkpt lat="45.45999" lon="5.55628">
        <ele>601.922607</ele>
        <time>2007-09-09T07:05:42Z</time>
      </trkpt>
      <trkpt lat="45.45996" lon="5.55671">
        <ele>602.403076</ele>
        <time>2007-09-09T07:05:49Z</time>
      </trkpt>
      <trkpt lat="45.45999" lon="5.55714">
        <ele>603.364502</ele>
        <time>2007-09-09T07:05:56Z</time>
      </trkpt>
      <trkpt lat="45.46007" lon="5.55756">
        <ele>604.326172</ele>
        <time>2007-09-09T07:06:03Z</time>
      </trkpt>
      <trkpt lat="45.46016" lon="5.55797">
        <ele>605.287353</ele>
        <time>2007-09-09T07:06:10Z</time>
      </trkpt>
      <trkpt lat="45.46024" lon="5.55839">
        <ele>606.248535</ele>
        <time>2007-09-09T07:06:17Z</time>
      </trkpt>
      <trkpt lat="45.46032" lon="5.55876">
        <ele>606.729248</ele>
        <time>2007-09-09T07:06:23Z</time>
      </trkpt>
      <trkpt lat="45.46043" lon="5.5591">
        <ele>606.729248</ele>
        <time>2007-09-09T07:06:29Z</time>
      </trkpt>
      <trkpt lat="45.46063" lon="5.55944">
        <ele>606.248535</ele>
        <time>2007-09-09T07:06:35Z</time>
      </trkpt>
      <trkpt lat="45.46084" lon="5.55974">
        <ele>605.768066</ele>
        <time>2007-09-09T07:06:40Z</time>
      </trkpt>
      <trkpt lat="45.46104" lon="5.5601">
        <ele>604.326172</ele>
        <time>2007-09-09T07:06:45Z</time>
      </trkpt>
      <trkpt lat="45.46118" lon="5.56043">
        <ele>602.883789</ele>
        <time>2007-09-09T07:06:49Z</time>
      </trkpt>
      <trkpt lat="45.46131" lon="5.56079">
        <ele>602.403076</ele>
        <time>2007-09-09T07:06:53Z</time>
      </trkpt>
      <trkpt lat="45.46146" lon="5.56114">
        <ele>601.441894</ele>
        <time>2007-09-09T07:06:57Z</time>
      </trkpt>
      <trkpt lat="45.46165" lon="5.56146">
        <ele>600.961182</ele>
        <time>2007-09-09T07:07:01Z</time>
      </trkpt>
      <trkpt lat="45.46185" lon="5.56176">
        <ele>600.961182</ele>
        <time>2007-09-09T07:07:05Z</time>
      </trkpt>
      <trkpt lat="45.46207" lon="5.56206">
        <ele>600.480713</ele>
        <time>2007-09-09T07:07:09Z</time>
      </trkpt>
      <trkpt lat="45.46229" lon="5.56235">
        <ele>599.519287</ele>
        <time>2007-09-09T07:07:13Z</time>
      </trkpt>
      <trkpt lat="45.46253" lon="5.56262">
        <ele>598.077393</ele>
        <time>2007-09-09T07:07:17Z</time>
      </trkpt>
      <trkpt lat="45.46277" lon="5.56286">
        <ele>597.115967</ele>
        <time>2007-09-09T07:07:21Z</time>
      </trkpt>
      <trkpt lat="45.46303" lon="5.56311">
        <ele>596.154785</ele>
        <time>2007-09-09T07:07:25Z</time>
      </trkpt>
      <trkpt lat="45.46328" lon="5.56335">
        <ele>595.193359</ele>
        <time>2007-09-09T07:07:29Z</time>
      </trkpt>
      <trkpt lat="45.46353" lon="5.5636">
        <ele>594.712647</ele>
        <time>2007-09-09T07:07:33Z</time>
      </trkpt>
      <trkpt lat="45.46379" lon="5.56384">
        <ele>594.712647</ele>
        <time>2007-09-09T07:07:37Z</time>
      </trkpt>
      <trkpt lat="45.46408" lon="5.56403">
        <ele>594.232178</ele>
        <time>2007-09-09T07:07:41Z</time>
      </trkpt>
      <trkpt lat="45.46437" lon="5.56417">
        <ele>593.751465</ele>
        <time>2007-09-09T07:07:45Z</time>
      </trkpt>
      <trkpt lat="45.46466" lon="5.56429">
        <ele>593.751465</ele>
        <time>2007-09-09T07:07:49Z</time>
      </trkpt>
      <trkpt lat="45.46494" lon="5.56443">
        <ele>592.790283</ele>
        <time>2007-09-09T07:07:53Z</time>
      </trkpt>
      <trkpt lat="45.46518" lon="5.56465">
        <ele>592.30957</ele>
        <time>2007-09-09T07:07:57Z</time>
      </trkpt>
      <trkpt lat="45.46538" lon="5.56495">
        <ele>591.348144</ele>
        <time>2007-09-09T07:08:01Z</time>
      </trkpt>
      <trkpt lat="45.46554" lon="5.56527">
        <ele>590.867432</ele>
        <time>2007-09-09T07:08:05Z</time>
      </trkpt>
      <trkpt lat="45.46571" lon="5.56559">
        <ele>590.386963</ele>
        <time>2007-09-09T07:08:09Z</time>
      </trkpt>
      <trkpt lat="45.46587" lon="5.56591">
        <ele>589.90625</ele>
        <time>2007-09-09T07:08:13Z</time>
      </trkpt>
      <trkpt lat="45.46604" lon="5.56622">
        <ele>589.90625</ele>
        <time>2007-09-09T07:08:17Z</time>
      </trkpt>
      <trkpt lat="45.46621" lon="5.56652">
        <ele>589.90625</ele>
        <time>2007-09-09T07:08:21Z</time>
      </trkpt>
      <trkpt lat="45.46643" lon="5.56688">
        <ele>589.425537</ele>
        <time>2007-09-09T07:08:26Z</time>
      </trkpt>
      <trkpt lat="45.46666" lon="5.56722">
        <ele>589.425537</ele>
        <time>2007-09-09T07:08:31Z</time>
      </trkpt>
      <trkpt lat="45.46688" lon="5.56756">
        <ele>589.425537</ele>
        <time>2007-09-09T07:08:36Z</time>
      </trkpt>
      <trkpt lat="45.46707" lon="5.56794">
        <ele>589.425537</ele>
        <time>2007-09-09T07:08:41Z</time>
      </trkpt>
      <trkpt lat="45.4672" lon="5.56837">
        <ele>587.983398</ele>
        <time>2007-09-09T07:08:46Z</time>
      </trkpt>
      <trkpt lat="45.46734" lon="5.56876">
        <ele>588.945068</ele>
        <time>2007-09-09T07:08:51Z</time>
      </trkpt>
      <trkpt lat="45.46747" lon="5.56914">
        <ele>587.983398</ele>
        <time>2007-09-09T07:08:56Z</time>
      </trkpt>
      <trkpt lat="45.4676" lon="5.56955">
        <ele>587.502685</ele>
        <time>2007-09-09T07:09:01Z</time>
      </trkpt>
      <trkpt lat="45.46774" lon="5.56995">
        <ele>587.502685</ele>
        <time>2007-09-09T07:09:06Z</time>
      </trkpt>
      <trkpt lat="45.46786" lon="5.57033">
        <ele>587.983398</ele>
        <time>2007-09-09T07:09:11Z</time>
      </trkpt>
      <trkpt lat="45.46797" lon="5.57071">
        <ele>588.464356</ele>
        <time>2007-09-09T07:09:16Z</time>
      </trkpt>
      <trkpt lat="45.46807" lon="5.57111">
        <ele>588.464356</ele>
        <time>2007-09-09T07:09:21Z</time>
      </trkpt>
      <trkpt lat="45.46818" lon="5.57153">
        <ele>587.502685</ele>
        <time>2007-09-09T07:09:26Z</time>
      </trkpt>
      <trkpt lat="45.46829" lon="5.57197">
        <ele>587.021973</ele>
        <time>2007-09-09T07:09:31Z</time>
      </trkpt>
      <trkpt lat="45.4684" lon="5.57234">
        <ele>587.021973</ele>
        <time>2007-09-09T07:09:35Z</time>
      </trkpt>
      <trkpt lat="45.46851" lon="5.5727">
        <ele>586.060791</ele>
        <time>2007-09-09T07:09:39Z</time>
      </trkpt>
      <trkpt lat="45.46867" lon="5.57311">
        <ele>586.060791</ele>
        <time>2007-09-09T07:09:44Z</time>
      </trkpt>
      <trkpt lat="45.46882" lon="5.57349">
        <ele>586.060791</ele>
        <time>2007-09-09T07:09:49Z</time>
      </trkpt>
      <trkpt lat="45.46896" lon="5.57386">
        <ele>586.060791</ele>
        <time>2007-09-09T07:09:54Z</time>
      </trkpt>
      <trkpt lat="45.4691" lon="5.57423">
        <ele>586.060791</ele>
        <time>2007-09-09T07:09:59Z</time>
      </trkpt>
      <trkpt lat="45.46926" lon="5.57462">
        <ele>586.060791</ele>
        <time>2007-09-09T07:10:04Z</time>
      </trkpt>
      <trkpt lat="45.46942" lon="5.575">
        <ele>586.541504</ele>
        <time>2007-09-09T07:10:09Z</time>
      </trkpt>
      <trkpt lat="45.4696" lon="5.57537">
        <ele>586.060791</ele>
        <time>2007-09-09T07:10:14Z</time>
      </trkpt>
      <trkpt lat="45.4698" lon="5.57565">
        <ele>586.060791</ele>
        <time>2007-09-09T07:10:19Z</time>
      </trkpt>
      <trkpt lat="45.47001" lon="5.57589">
        <ele>586.541504</ele>
        <time>2007-09-09T07:10:24Z</time>
      </trkpt>
      <trkpt lat="45.47024" lon="5.57612">
        <ele>587.021973</ele>
        <time>2007-09-09T07:10:29Z</time>
      </trkpt>
      <trkpt lat="45.47046" lon="5.57637">
        <ele>587.502685</ele>
        <time>2007-09-09T07:10:34Z</time>
      </trkpt>
      <trkpt lat="45.47061" lon="5.57669">
        <ele>587.502685</ele>
        <time>2007-09-09T07:10:39Z</time>
      </trkpt>
      <trkpt lat="45.47077" lon="5.57701">
        <ele>587.983398</ele>
        <time>2007-09-09T07:10:44Z</time>
      </trkpt>
      <trkpt lat="45.47098" lon="5.57735">
        <ele>588.464356</ele>
        <time>2007-09-09T07:10:50Z</time>
      </trkpt>
      <trkpt lat="45.47123" lon="5.57751">
        <ele>588.464356</ele>
        <time>2007-09-09T07:10:55Z</time>
      </trkpt>
      <trkpt lat="45.4715" lon="5.57761">
        <ele>588.464356</ele>
        <time>2007-09-09T07:11:00Z</time>
      </trkpt>
      <trkpt lat="45.47179" lon="5.57769">
        <ele>588.945068</ele>
        <time>2007-09-09T07:11:05Z</time>
      </trkpt>
      <trkpt lat="45.47208" lon="5.57779">
        <ele>588.945068</ele>
        <time>2007-09-09T07:11:10Z</time>
      </trkpt>
      <trkpt lat="45.47238" lon="5.57791">
        <ele>588.945068</ele>
        <time>2007-09-09T07:11:15Z</time>
      </trkpt>
      <trkpt lat="45.47264" lon="5.57814">
        <ele>588.464356</ele>
        <time>2007-09-09T07:11:20Z</time>
      </trkpt>
      <trkpt lat="45.47287" lon="5.57846">
        <ele>588.945068</ele>
        <time>2007-09-09T07:11:25Z</time>
      </trkpt>
      <trkpt lat="45.47308" lon="5.57877">
        <ele>588.464356</ele>
        <time>2007-09-09T07:11:30Z</time>
      </trkpt>
      <trkpt lat="45.47328" lon="5.5791">
        <ele>587.983398</ele>
        <time>2007-09-09T07:11:35Z</time>
      </trkpt>
      <trkpt lat="45.47349" lon="5.57942">
        <ele>587.983398</ele>
        <time>2007-09-09T07:11:40Z</time>
      </trkpt>
      <trkpt lat="45.4737" lon="5.57975">
        <ele>587.983398</ele>
        <time>2007-09-09T07:11:45Z</time>
      </trkpt>
      <trkpt lat="45.47394" lon="5.58003">
        <ele>587.983398</ele>
        <time>2007-09-09T07:11:50Z</time>
      </trkpt>
      <trkpt lat="45.4742" lon="5.58027">
        <ele>587.983398</ele>
        <time>2007-09-09T07:11:55Z</time>
      </trkpt>
      <trkpt lat="45.47447" lon="5.58051">
        <ele>587.502685</ele>
        <time>2007-09-09T07:12:00Z</time>
      </trkpt>
      <trkpt lat="45.47473" lon="5.58075">
        <ele>587.021973</ele>
        <time>2007-09-09T07:12:05Z</time>
      </trkpt>
      <trkpt lat="45.475" lon="5.581">
        <ele>586.541504</ele>
        <time>2007-09-09T07:12:10Z</time>
      </trkpt>
      <trkpt lat="45.47527" lon="5.58124">
        <ele>586.060791</ele>
        <time>2007-09-09T07:12:15Z</time>
      </trkpt>
      <trkpt lat="45.47554" lon="5.5815">
        <ele>585.580078</ele>
        <time>2007-09-09T07:12:20Z</time>
      </trkpt>
      <trkpt lat="45.47579" lon="5.58167">
        <ele>585.580078</ele>
        <time>2007-09-09T07:12:25Z</time>
      </trkpt>
      <trkpt lat="45.47604" lon="5.58134">
        <ele>582.696289</ele>
        <time>2007-09-09T07:12:30Z</time>
      </trkpt>
      <trkpt lat="45.47626" lon="5.581">
        <ele>581.254394</ele>
        <time>2007-09-09T07:12:34Z</time>
      </trkpt>
      <trkpt lat="45.47644" lon="5.58058">
        <ele>578.851074</ele>
        <time>2007-09-09T07:12:38Z</time>
      </trkpt>
      <trkpt lat="45.47663" lon="5.58017">
        <ele>576.928467</ele>
        <time>2007-09-09T07:12:42Z</time>
      </trkpt>
      <trkpt lat="45.47688" lon="5.57981">
        <ele>575.486328</ele>
        <time>2007-09-09T07:12:46Z</time>
      </trkpt>
      <trkpt lat="45.47709" lon="5.57958">
        <ele>573.083252</ele>
        <time>2007-09-09T07:12:49Z</time>
      </trkpt>
      <trkpt lat="45.47731" lon="5.57935">
        <ele>571.1604</ele>
        <time>2007-09-09T07:12:52Z</time>
      </trkpt>
      <trkpt lat="45.47761" lon="5.57908">
        <ele>568.75708</ele>
        <time>2007-09-09T07:12:56Z</time>
      </trkpt>
      <trkpt lat="45.4779" lon="5.57886">
        <ele>565.392578</ele>
        <time>2007-09-09T07:13:00Z</time>
      </trkpt>
      <trkpt lat="45.4782" lon="5.5787">
        <ele>562.508545</ele>
        <time>2007-09-09T07:13:04Z</time>
      </trkpt>
      <trkpt lat="45.47854" lon="5.57865">
        <ele>557.702148</ele>
        <time>2007-09-09T07:13:08Z</time>
      </trkpt>
      <trkpt lat="45.47888" lon="5.57862">
        <ele>554.817871</ele>
        <time>2007-09-09T07:13:12Z</time>
      </trkpt>
      <trkpt lat="45.47947" lon="5.57889">
        <ele>552.895264</ele>
        <time>2007-09-09T07:13:20Z</time>
      </trkpt>
      <trkpt lat="45.47996" lon="5.57927">
        <ele>551.934082</ele>
        <time>2007-09-09T07:13:28Z</time>
      </trkpt>
      <trkpt lat="45.48026" lon="5.57933">
        <ele>547.608154</ele>
        <time>2007-09-09T07:13:32Z</time>
      </trkpt>
      <trkpt lat="45.48052" lon="5.5792">
        <ele>542.320923</ele>
        <time>2007-09-09T07:13:36Z</time>
      </trkpt>
      <trkpt lat="45.48072" lon="5.57892">
        <ele>538.956299</ele>
        <time>2007-09-09T07:13:40Z</time>
      </trkpt>
      <trkpt lat="45.48092" lon="5.57866">
        <ele>535.591553</ele>
        <time>2007-09-09T07:13:44Z</time>
      </trkpt>
      <trkpt lat="45.48115" lon="5.57839">
        <ele>532.227051</ele>
        <time>2007-09-09T07:13:48Z</time>
      </trkpt>
      <trkpt lat="45.48144" lon="5.57815">
        <ele>529.823731</ele>
        <time>2007-09-09T07:13:52Z</time>
      </trkpt>
      <trkpt lat="45.48166" lon="5.57784">
        <ele>528.862549</ele>
        <time>2007-09-09T07:13:56Z</time>
      </trkpt>
      <trkpt lat="45.48182" lon="5.57752">
        <ele>526.939819</ele>
        <time>2007-09-09T07:14:00Z</time>
      </trkpt>
      <trkpt lat="45.48202" lon="5.57714">
        <ele>523.094604</ele>
        <time>2007-09-09T07:14:04Z</time>
      </trkpt>
      <trkpt lat="45.48221" lon="5.57682">
        <ele>519.729858</ele>
        <time>2007-09-09T07:14:07Z</time>
      </trkpt>
      <trkpt lat="45.4824" lon="5.5765">
        <ele>517.807251</ele>
        <time>2007-09-09T07:14:10Z</time>
      </trkpt>
      <trkpt lat="45.48263" lon="5.57626">
        <ele>515.884644</ele>
        <time>2007-09-09T07:14:13Z</time>
      </trkpt>
      <trkpt lat="45.48289" lon="5.57621">
        <ele>515.404053</ele>
        <time>2007-09-09T07:14:16Z</time>
      </trkpt>
      <trkpt lat="45.4832" lon="5.57623">
        <ele>514.442627</ele>
        <time>2007-09-09T07:14:20Z</time>
      </trkpt>
      <trkpt lat="45.48349" lon="5.57625">
        <ele>513.962036</ele>
        <time>2007-09-09T07:14:24Z</time>
      </trkpt>
      <trkpt lat="45.48375" lon="5.57621">
        <ele>513.481445</ele>
        <time>2007-09-09T07:14:28Z</time>
      </trkpt>
      <trkpt lat="45.484" lon="5.57626">
        <ele>513.000732</ele>
        <time>2007-09-09T07:14:33Z</time>
      </trkpt>
      <trkpt lat="45.48421" lon="5.57659">
        <ele>513.481445</ele>
        <time>2007-09-09T07:14:39Z</time>
      </trkpt>
      <trkpt lat="45.48441" lon="5.57692">
        <ele>513.000732</ele>
        <time>2007-09-09T07:14:45Z</time>
      </trkpt>
      <trkpt lat="45.4846" lon="5.57724">
        <ele>513.000732</ele>
        <time>2007-09-09T07:14:51Z</time>
      </trkpt>
      <trkpt lat="45.48479" lon="5.57756">
        <ele>513.000732</ele>
        <time>2007-09-09T07:14:57Z</time>
      </trkpt>
      <trkpt lat="45.485" lon="5.57781">
        <ele>513.000732</ele>
        <time>2007-09-09T07:15:03Z</time>
      </trkpt>
      <trkpt lat="45.48526" lon="5.57773">
        <ele>512.039429</ele>
        <time>2007-09-09T07:15:09Z</time>
      </trkpt>
      <trkpt lat="45.4855" lon="5.57742">
        <ele>511.078003</ele>
        <time>2007-09-09T07:15:15Z</time>
      </trkpt>
      <trkpt lat="45.48573" lon="5.57723">
        <ele>511.078003</ele>
        <time>2007-09-09T07:15:20Z</time>
      </trkpt>
      <trkpt lat="45.486" lon="5.57702">
        <ele>511.558716</ele>
        <time>2007-09-09T07:15:26Z</time>
      </trkpt>
      <trkpt lat="45.48626" lon="5.5768">
        <ele>512.039429</ele>
        <time>2007-09-09T07:15:32Z</time>
      </trkpt>
      <trkpt lat="45.48649" lon="5.5766">
        <ele>512.039429</ele>
        <time>2007-09-09T07:15:37Z</time>
      </trkpt>
      <trkpt lat="45.48673" lon="5.57631">
        <ele>512.520019</ele>
        <time>2007-09-09T07:15:43Z</time>
      </trkpt>
      <trkpt lat="45.48692" lon="5.576">
        <ele>512.520019</ele>
        <time>2007-09-09T07:15:49Z</time>
      </trkpt>
      <trkpt lat="45.4871" lon="5.57568">
        <ele>513.000732</ele>
        <time>2007-09-09T07:15:55Z</time>
      </trkpt>
      <trkpt lat="45.48729" lon="5.57537">
        <ele>513.481445</ele>
        <time>2007-09-09T07:16:01Z</time>
      </trkpt>
      <trkpt lat="45.48748" lon="5.57505">
        <ele>513.481445</ele>
        <time>2007-09-09T07:16:07Z</time>
      </trkpt>
      <trkpt lat="45.48767" lon="5.57473">
        <ele>513.962036</ele>
        <time>2007-09-09T07:16:13Z</time>
      </trkpt>
      <trkpt lat="45.48785" lon="5.57442">
        <ele>515.404053</ele>
        <time>2007-09-09T07:16:19Z</time>
      </trkpt>
      <trkpt lat="45.48803" lon="5.57412">
        <ele>515.884644</ele>
        <time>2007-09-09T07:16:25Z</time>
      </trkpt>
      <trkpt lat="45.48818" lon="5.57378">
        <ele>516.845947</ele>
        <time>2007-09-09T07:16:31Z</time>
      </trkpt>
      <trkpt lat="45.48828" lon="5.57341">
        <ele>516.845947</ele>
        <time>2007-09-09T07:16:37Z</time>
      </trkpt>
      <trkpt lat="45.4884" lon="5.57305">
        <ele>517.32666</ele>
        <time>2007-09-09T07:16:43Z</time>
      </trkpt>
      <trkpt lat="45.48856" lon="5.57268">
        <ele>518.768555</ele>
        <time>2007-09-09T07:16:50Z</time>
      </trkpt>
      <trkpt lat="45.4887" lon="5.57233">
        <ele>519.249268</ele>
        <time>2007-09-09T07:16:58Z</time>
      </trkpt>
      <trkpt lat="45.4887" lon="5.57233">
        <ele>519.249268</ele>
        <time>2007-09-09T07:16:58Z</time>
      </trkpt>
      <trkpt lat="45.4888" lon="5.57196">
        <ele>520.210571</ele>
        <time>2007-09-09T07:17:06Z</time>
      </trkpt>
      <trkpt lat="45.48891" lon="5.57158">
        <ele>522.133179</ele>
        <time>2007-09-09T07:17:15Z</time>
      </trkpt>
      <trkpt lat="45.48902" lon="5.5712">
        <ele>523.575195</ele>
        <time>2007-09-09T07:17:25Z</time>
      </trkpt>
      <trkpt lat="45.48916" lon="5.57083">
        <ele>525.017212</ele>
        <time>2007-09-09T07:17:35Z</time>
      </trkpt>
      <trkpt lat="45.4893" lon="5.57046">
        <ele>525.978394</ele>
        <time>2007-09-09T07:17:45Z</time>
      </trkpt>
      <trkpt lat="45.48943" lon="5.57009">
        <ele>526.459106</ele>
        <time>2007-09-09T07:17:55Z</time>
      </trkpt>
      <trkpt lat="45.48958" lon="5.56975">
        <ele>527.901001</ele>
        <time>2007-09-09T07:18:04Z</time>
      </trkpt>
      <trkpt lat="45.48971" lon="5.5694">
        <ele>529.823731</ele>
        <time>2007-09-09T07:18:13Z</time>
      </trkpt>
      <trkpt lat="45.4898" lon="5.56902">
        <ele>529.823731</ele>
        <time>2007-09-09T07:18:22Z</time>
      </trkpt>
      <trkpt lat="45.48989" lon="5.56862">
        <ele>530.785156</ele>
        <time>2007-09-09T07:18:31Z</time>
      </trkpt>
      <trkpt lat="45.48995" lon="5.56824">
        <ele>531.746338</ele>
        <time>2007-09-09T07:18:40Z</time>
      </trkpt>
      <trkpt lat="45.49006" lon="5.56788">
        <ele>533.668945</ele>
        <time>2007-09-09T07:18:50Z</time>
      </trkpt>
      <trkpt lat="45.4903" lon="5.56781">
        <ele>532.227051</ele>
        <time>2007-09-09T07:19:02Z</time>
      </trkpt>
      <trkpt lat="45.4906" lon="5.56783">
        <ele>534.149658</ele>
        <time>2007-09-09T07:19:12Z</time>
      </trkpt>
      <trkpt lat="45.49089" lon="5.56777">
        <ele>539.43689</ele>
        <time>2007-09-09T07:19:22Z</time>
      </trkpt>
      <trkpt lat="45.4912" lon="5.56774">
        <ele>549.050049</ele>
        <time>2007-09-09T07:20:06Z</time>
      </trkpt>
      <trkpt lat="45.4915" lon="5.56778">
        <ele>552.414551</ele>
        <time>2007-09-09T07:20:22Z</time>
      </trkpt>
      <trkpt lat="45.49267" lon="5.56749">
        <ele>559.144043</ele>
        <time>2007-09-09T07:21:35Z</time>
      </trkpt>
      <trkpt lat="45.49299" lon="5.56745">
        <ele>562.508545</ele>
        <time>2007-09-09T07:21:52Z</time>
      </trkpt>
      <trkpt lat="45.49331" lon="5.56736">
        <ele>570.198975</ele>
        <time>2007-09-09T07:22:05Z</time>
      </trkpt>
      <trkpt lat="45.49361" lon="5.56725">
        <ele>575.486328</ele>
        <time>2007-09-09T07:22:17Z</time>
      </trkpt>
      <trkpt lat="45.4939" lon="5.5672">
        <ele>578.851074</ele>
        <time>2007-09-09T07:22:28Z</time>
      </trkpt>
      <trkpt lat="45.49422" lon="5.56727">
        <ele>581.254394</ele>
        <time>2007-09-09T07:22:39Z</time>
      </trkpt>
      <trkpt lat="45.4945" lon="5.56737">
        <ele>581.734863</ele>
        <time>2007-09-09T07:22:48Z</time>
      </trkpt>
      <trkpt lat="45.49479" lon="5.5674">
        <ele>582.696289</ele>
        <time>2007-09-09T07:22:56Z</time>
      </trkpt>
      <trkpt lat="45.49508" lon="5.5674">
        <ele>583.657471</ele>
        <time>2007-09-09T07:23:04Z</time>
      </trkpt>
      <trkpt lat="45.49536" lon="5.56742">
        <ele>585.099609</ele>
        <time>2007-09-09T07:23:12Z</time>
      </trkpt>
      <trkpt lat="45.49567" lon="5.56744">
        <ele>586.541504</ele>
        <time>2007-09-09T07:23:20Z</time>
      </trkpt>
      <trkpt lat="45.49596" lon="5.56745">
        <ele>587.502685</ele>
        <time>2007-09-09T07:23:28Z</time>
      </trkpt>
      <trkpt lat="45.49625" lon="5.5675">
        <ele>588.464356</ele>
        <time>2007-09-09T07:23:36Z</time>
      </trkpt>
      <trkpt lat="45.49656" lon="5.56755">
        <ele>588.945068</ele>
        <time>2007-09-09T07:23:44Z</time>
      </trkpt>
      <trkpt lat="45.49687" lon="5.56765">
        <ele>588.945068</ele>
        <time>2007-09-09T07:23:51Z</time>
      </trkpt>
      <trkpt lat="45.49715" lon="5.56777">
        <ele>588.945068</ele>
        <time>2007-09-09T07:23:57Z</time>
      </trkpt>
      <trkpt lat="45.49742" lon="5.56788">
        <ele>588.464356</ele>
        <time>2007-09-09T07:24:03Z</time>
      </trkpt>
      <trkpt lat="45.49769" lon="5.56801">
        <ele>588.945068</ele>
        <time>2007-09-09T07:24:09Z</time>
      </trkpt>
      <trkpt lat="45.49781" lon="5.56805">
        <ele>588.945068</ele>
        <time>2007-09-09T05:20:56Z</time>
      </trkpt>
      <trkpt lat="45.49781" lon="5.5678">
        <ele>590.386963</ele>
        <time>2007-09-09T05:21:04Z</time>
      </trkpt>
      <trkpt lat="45.49796" lon="5.56747">
        <ele>592.790283</ele>
        <time>2007-09-09T05:21:15Z</time>
      </trkpt>
      <trkpt lat="45.49817" lon="5.56723">
        <ele>594.712647</ele>
        <time>2007-09-09T05:21:25Z</time>
      </trkpt>
      <trkpt lat="45.49844" lon="5.56715">
        <ele>597.59668</ele>
        <time>2007-09-09T05:21:36Z</time>
      </trkpt>
      <trkpt lat="45.49869" lon="5.56701">
        <ele>600.480713</ele>
        <time>2007-09-09T05:21:48Z</time>
      </trkpt>
      <trkpt lat="45.49894" lon="5.56681">
        <ele>603.364502</ele>
        <time>2007-09-09T05:22:00Z</time>
      </trkpt>
      <trkpt lat="45.49916" lon="5.56656">
        <ele>605.287353</ele>
        <time>2007-09-09T05:22:12Z</time>
      </trkpt>
      <trkpt lat="45.49936" lon="5.56626">
        <ele>607.209961</ele>
        <time>2007-09-09T05:22:24Z</time>
      </trkpt>
      <trkpt lat="45.49956" lon="5.56597">
        <ele>609.613281</ele>
        <time>2007-09-09T05:22:36Z</time>
      </trkpt>
      <trkpt lat="45.49976" lon="5.56566">
        <ele>611.535889</ele>
        <time>2007-09-09T05:22:48Z</time>
      </trkpt>
      <trkpt lat="45.49995" lon="5.56536">
        <ele>615.381103</ele>
        <time>2007-09-09T05:23:01Z</time>
      </trkpt>
      <trkpt lat="45.50019" lon="5.56517">
        <ele>615.861816</ele>
        <time>2007-09-09T05:23:12Z</time>
      </trkpt>
      <trkpt lat="45.50045" lon="5.56502">
        <ele>617.78418</ele>
        <time>2007-09-09T05:23:24Z</time>
      </trkpt>
      <trkpt lat="45.50075" lon="5.56503">
        <ele>617.78418</ele>
        <time>2007-09-09T05:23:37Z</time>
      </trkpt>
      <trkpt lat="45.50106" lon="5.56506">
        <ele>613.458496</ele>
        <time>2007-09-09T05:23:51Z</time>
      </trkpt>
      <trkpt lat="45.50132" lon="5.56484">
        <ele>615.861816</ele>
        <time>2007-09-09T05:24:01Z</time>
      </trkpt>
      <trkpt lat="45.50161" lon="5.5647">
        <ele>615.861816</ele>
        <time>2007-09-09T05:24:09Z</time>
      </trkpt>
      <trkpt lat="45.5023" lon="5.56328">
        <ele>616.822998</ele>
        <time>2007-09-09T05:24:39Z</time>
      </trkpt>
      <trkpt lat="45.50225" lon="5.56227">
        <ele>615.381103</ele>
        <time>2007-09-09T05:24:46Z</time>
      </trkpt>
      <trkpt lat="45.5023" lon="5.56184">
        <ele>614.900391</ele>
        <time>2007-09-09T05:24:53Z</time>
      </trkpt>
      <trkpt lat="45.50231" lon="5.56108">
        <ele>616.822998</ele>
        <time>2007-09-09T05:25:14Z</time>
      </trkpt>
      <trkpt lat="45.50208" lon="5.56084">
        <ele>620.187744</ele>
        <time>2007-09-09T05:25:36Z</time>
      </trkpt>
      <trkpt lat="45.50206" lon="5.56027">
        <ele>622.591065</ele>
        <time>2007-09-09T05:25:58Z</time>
      </trkpt>
      <trkpt lat="45.5022" lon="5.55977">
        <ele>624.994385</ele>
        <time>2007-09-09T05:26:11Z</time>
      </trkpt>
      <trkpt lat="45.50241" lon="5.55901">
        <ele>627.397705</ele>
        <time>2007-09-09T05:26:20Z</time>
      </trkpt>
      <trkpt lat="45.50247" lon="5.5586">
        <ele>625.955566</ele>
        <time>2007-09-09T05:26:28Z</time>
      </trkpt>
      <trkpt lat="45.5025" lon="5.55774">
        <ele>626.916992</ele>
        <time>2007-09-09T05:26:42Z</time>
      </trkpt>
      <trkpt lat="45.50246" lon="5.55733">
        <ele>627.878174</ele>
        <time>2007-09-09T05:26:50Z</time>
      </trkpt>
      <trkpt lat="45.50235" lon="5.55687">
        <ele>624.032959</ele>
        <time>2007-09-09T05:26:57Z</time>
      </trkpt>
      <trkpt lat="45.50226" lon="5.55646">
        <ele>622.110352</ele>
        <time>2007-09-09T05:27:02Z</time>
      </trkpt>
      <trkpt lat="45.50216" lon="5.55604">
        <ele>620.187744</ele>
        <time>2007-09-09T05:27:07Z</time>
      </trkpt>
      <trkpt lat="45.50207" lon="5.55565">
        <ele>619.707031</ele>
        <time>2007-09-09T05:27:12Z</time>
      </trkpt>
      <trkpt lat="45.50199" lon="5.55525">
        <ele>619.707031</ele>
        <time>2007-09-09T05:27:18Z</time>
      </trkpt>
      <trkpt lat="45.50188" lon="5.55484">
        <ele>617.78418</ele>
        <time>2007-09-09T05:27:25Z</time>
      </trkpt>
      <trkpt lat="45.50176" lon="5.55447">
        <ele>617.303711</ele>
        <time>2007-09-09T05:27:32Z</time>
      </trkpt>
      <trkpt lat="45.50167" lon="5.55407">
        <ele>615.861816</ele>
        <time>2007-09-09T05:27:39Z</time>
      </trkpt>
      <trkpt lat="45.50161" lon="5.55368">
        <ele>616.342285</ele>
        <time>2007-09-09T05:27:45Z</time>
      </trkpt>
      <trkpt lat="45.50156" lon="5.55325">
        <ele>615.861816</ele>
        <time>2007-09-09T05:27:51Z</time>
      </trkpt>
      <trkpt lat="45.5015" lon="5.55282">
        <ele>615.381103</ele>
        <time>2007-09-09T05:27:57Z</time>
      </trkpt>
      <trkpt lat="45.50143" lon="5.55242">
        <ele>614.419678</ele>
        <time>2007-09-09T05:28:02Z</time>
      </trkpt>
      <trkpt lat="45.50127" lon="5.55207">
        <ele>614.419678</ele>
        <time>2007-09-09T05:28:07Z</time>
      </trkpt>
      <trkpt lat="45.50105" lon="5.55178">
        <ele>613.458496</ele>
        <time>2007-09-09T05:28:12Z</time>
      </trkpt>
      <trkpt lat="45.50082" lon="5.55153">
        <ele>612.49707</ele>
        <time>2007-09-09T05:28:17Z</time>
      </trkpt>
      <trkpt lat="45.50053" lon="5.55142">
        <ele>610.574463</ele>
        <time>2007-09-09T05:28:22Z</time>
      </trkpt>
      <trkpt lat="45.50027" lon="5.55118">
        <ele>609.132568</ele>
        <time>2007-09-09T05:28:27Z</time>
      </trkpt>
      <trkpt lat="45.50012" lon="5.55082">
        <ele>608.651856</ele>
        <time>2007-09-09T05:28:31Z</time>
      </trkpt>
      <trkpt lat="45.49996" lon="5.55045">
        <ele>607.690674</ele>
        <time>2007-09-09T05:28:35Z</time>
      </trkpt>
      <trkpt lat="45.49982" lon="5.55002">
        <ele>605.768066</ele>
        <time>2007-09-09T05:28:39Z</time>
      </trkpt>
      <trkpt lat="45.49968" lon="5.5496">
        <ele>604.326172</ele>
        <time>2007-09-09T05:28:43Z</time>
      </trkpt>
      <trkpt lat="45.49956" lon="5.54922">
        <ele>603.845215</ele>
        <time>2007-09-09T05:28:47Z</time>
      </trkpt>
      <trkpt lat="45.49932" lon="5.54927">
        <ele>601.441894</ele>
        <time>2007-09-09T05:28:54Z</time>
      </trkpt>
      <trkpt lat="45.49904" lon="5.54926">
        <ele>601.441894</ele>
        <time>2007-09-09T05:29:01Z</time>
      </trkpt>
      <trkpt lat="45.49881" lon="5.5491">
        <ele>604.326172</ele>
        <time>2007-09-09T05:29:09Z</time>
      </trkpt>
      <trkpt lat="45.49854" lon="5.54903">
        <ele>608.171387</ele>
        <time>2007-09-09T05:29:19Z</time>
      </trkpt>
      <trkpt lat="45.49824" lon="5.54901">
        <ele>611.055176</ele>
        <time>2007-09-09T05:29:30Z</time>
      </trkpt>
      <trkpt lat="45.49796" lon="5.54901">
        <ele>612.977783</ele>
        <time>2007-09-09T05:29:42Z</time>
      </trkpt>
      <trkpt lat="45.49768" lon="5.54902">
        <ele>613.458496</ele>
        <time>2007-09-09T05:29:52Z</time>
      </trkpt>
      <trkpt lat="45.49738" lon="5.54905">
        <ele>614.900391</ele>
        <time>2007-09-09T05:30:02Z</time>
      </trkpt>
      <trkpt lat="45.49712" lon="5.54894">
        <ele>617.303711</ele>
        <time>2007-09-09T05:30:12Z</time>
      </trkpt>
      <trkpt lat="45.49687" lon="5.54875">
        <ele>620.187744</ele>
        <time>2007-09-09T05:30:23Z</time>
      </trkpt>
      <trkpt lat="45.49662" lon="5.54855">
        <ele>622.110352</ele>
        <time>2007-09-09T05:30:34Z</time>
      </trkpt>
      <trkpt lat="45.49639" lon="5.54834">
        <ele>624.032959</ele>
        <time>2007-09-09T05:30:46Z</time>
      </trkpt>
      <trkpt lat="45.49612" lon="5.54823">
        <ele>625.955566</ele>
        <time>2007-09-09T05:30:59Z</time>
      </trkpt>
      <trkpt lat="45.49586" lon="5.54839">
        <ele>628.358887</ele>
        <time>2007-09-09T05:31:11Z</time>
      </trkpt>
      <trkpt lat="45.4957" lon="5.54873">
        <ele>629.320068</ele>
        <time>2007-09-09T05:31:21Z</time>
      </trkpt>
      <trkpt lat="45.49562" lon="5.54913">
        <ele>629.800781</ele>
        <time>2007-09-09T05:31:29Z</time>
      </trkpt>
      <trkpt lat="45.4955" lon="5.54951">
        <ele>629.800781</ele>
        <time>2007-09-09T05:31:36Z</time>
      </trkpt>
      <trkpt lat="45.49527" lon="5.54977">
        <ele>630.281494</ele>
        <time>2007-09-09T05:31:43Z</time>
      </trkpt>
      <trkpt lat="45.49506" lon="5.55011">
        <ele>630.762207</ele>
        <time>2007-09-09T05:31:50Z</time>
      </trkpt>
      <trkpt lat="45.49488" lon="5.55043">
        <ele>631.723389</ele>
        <time>2007-09-09T05:31:56Z</time>
      </trkpt>
      <trkpt lat="45.4947" lon="5.55077">
        <ele>631.723389</ele>
        <time>2007-09-09T05:32:02Z</time>
      </trkpt>
      <trkpt lat="45.4945" lon="5.5511">
        <ele>631.723389</ele>
        <time>2007-09-09T05:32:08Z</time>
      </trkpt>
      <trkpt lat="45.4943" lon="5.55141">
        <ele>631.723389</ele>
        <time>2007-09-09T05:32:14Z</time>
      </trkpt>
      <trkpt lat="45.49407" lon="5.55172">
        <ele>631.723389</ele>
        <time>2007-09-09T05:32:20Z</time>
      </trkpt>
      <trkpt lat="45.49384" lon="5.55199">
        <ele>631.723389</ele>
        <time>2007-09-09T05:32:26Z</time>
      </trkpt>
      <trkpt lat="45.49363" lon="5.55225">
        <ele>633.165283</ele>
        <time>2007-09-09T05:32:32Z</time>
      </trkpt>
      <trkpt lat="45.49344" lon="5.55232">
        <ele>634.607422</ele>
        <time>2007-09-09T05:32:41Z</time>
      </trkpt>
      <trkpt lat="45.49331" lon="5.55197">
        <ele>635.568603</ele>
        <time>2007-09-09T05:32:48Z</time>
      </trkpt>
      <trkpt lat="45.49309" lon="5.55167">
        <ele>634.126709</ele>
        <time>2007-09-09T05:32:54Z</time>
      </trkpt>
      <trkpt lat="45.49286" lon="5.5514">
        <ele>632.684815</ele>
        <time>2007-09-09T05:33:00Z</time>
      </trkpt>
      <trkpt lat="45.4926" lon="5.55121">
        <ele>631.723389</ele>
        <time>2007-09-09T05:33:08Z</time>
      </trkpt>
      <trkpt lat="45.49233" lon="5.55102">
        <ele>631.723389</ele>
        <time>2007-09-09T05:33:16Z</time>
      </trkpt>
      <trkpt lat="45.49204" lon="5.55087">
        <ele>632.204102</ele>
        <time>2007-09-09T05:33:24Z</time>
      </trkpt>
      <trkpt lat="45.49173" lon="5.55085">
        <ele>631.24292</ele>
        <time>2007-09-09T05:33:32Z</time>
      </trkpt>
      <trkpt lat="45.49143" lon="5.5509">
        <ele>633.165283</ele>
        <time>2007-09-09T05:33:40Z</time>
      </trkpt>
      <trkpt lat="45.49113" lon="5.55098">
        <ele>633.645996</ele>
        <time>2007-09-09T05:33:48Z</time>
      </trkpt>
      <trkpt lat="45.49086" lon="5.55091">
        <ele>634.607422</ele>
        <time>2007-09-09T05:33:59Z</time>
      </trkpt>
      <trkpt lat="45.49029" lon="5.55093">
        <ele>635.568603</ele>
        <time>2007-09-09T05:34:19Z</time>
      </trkpt>
      <trkpt lat="45.48969" lon="5.5509">
        <ele>629.320068</ele>
        <time>2007-09-09T05:34:36Z</time>
      </trkpt>
      <trkpt lat="45.48939" lon="5.55079">
        <ele>625.955566</ele>
        <time>2007-09-09T05:34:42Z</time>
      </trkpt>
      <trkpt lat="45.48912" lon="5.55066">
        <ele>624.513672</ele>
        <time>2007-09-09T05:34:49Z</time>
      </trkpt>
      <trkpt lat="45.48884" lon="5.55048">
        <ele>623.071777</ele>
        <time>2007-09-09T05:34:57Z</time>
      </trkpt>
      <trkpt lat="45.48828" lon="5.55023">
        <ele>617.303711</ele>
        <time>2007-09-09T05:35:16Z</time>
      </trkpt>
      <trkpt lat="45.48814" lon="5.55061">
        <ele>620.187744</ele>
        <time>2007-09-09T05:35:40Z</time>
      </trkpt>
      <trkpt lat="45.48773" lon="5.55132">
        <ele>614.419678</ele>
        <time>2007-09-09T05:36:02Z</time>
      </trkpt>
      <trkpt lat="45.48747" lon="5.5516">
        <ele>614.419678</ele>
        <time>2007-09-09T05:36:15Z</time>
      </trkpt>
      <trkpt lat="45.48723" lon="5.55193">
        <ele>611.055176</ele>
        <time>2007-09-09T05:36:28Z</time>
      </trkpt>
      <trkpt lat="45.48693" lon="5.55213">
        <ele>608.651856</ele>
        <time>2007-09-09T05:36:40Z</time>
      </trkpt>
      <trkpt lat="45.48669" lon="5.55239">
        <ele>609.613281</ele>
        <time>2007-09-09T05:36:53Z</time>
      </trkpt>
      <trkpt lat="45.48651" lon="5.5528">
        <ele>608.171387</ele>
        <time>2007-09-09T05:37:03Z</time>
      </trkpt>
      <trkpt lat="45.48631" lon="5.55316">
        <ele>608.171387</ele>
        <time>2007-09-09T05:37:12Z</time>
      </trkpt>
      <trkpt lat="45.48607" lon="5.55343">
        <ele>610.574463</ele>
        <time>2007-09-09T05:37:22Z</time>
      </trkpt>
      <trkpt lat="45.48581" lon="5.55366">
        <ele>613.938965</ele>
        <time>2007-09-09T05:37:33Z</time>
      </trkpt>
      <trkpt lat="45.48556" lon="5.55391">
        <ele>615.861816</ele>
        <time>2007-09-09T05:37:44Z</time>
      </trkpt>
      <trkpt lat="45.4853" lon="5.55415">
        <ele>616.342285</ele>
        <time>2007-09-09T05:37:53Z</time>
      </trkpt>
      <trkpt lat="45.48506" lon="5.55442">
        <ele>618.745606</ele>
        <time>2007-09-09T05:38:01Z</time>
      </trkpt>
      <trkpt lat="45.4849" lon="5.5548">
        <ele>619.707031</ele>
        <time>2007-09-09T05:38:09Z</time>
      </trkpt>
      <trkpt lat="45.4848" lon="5.55516">
        <ele>619.707031</ele>
        <time>2007-09-09T05:38:15Z</time>
      </trkpt>
      <trkpt lat="45.48466" lon="5.55557">
        <ele>620.668457</ele>
        <time>2007-09-09T05:38:22Z</time>
      </trkpt>
      <trkpt lat="45.48456" lon="5.55593">
        <ele>622.591065</ele>
        <time>2007-09-09T05:38:30Z</time>
      </trkpt>
      <trkpt lat="45.48441" lon="5.55631">
        <ele>623.071777</ele>
        <time>2007-09-09T05:38:38Z</time>
      </trkpt>
      <trkpt lat="45.48424" lon="5.55665">
        <ele>623.071777</ele>
        <time>2007-09-09T05:38:45Z</time>
      </trkpt>
      <trkpt lat="45.4841" lon="5.55699">
        <ele>623.55249</ele>
        <time>2007-09-09T05:38:52Z</time>
      </trkpt>
      <trkpt lat="45.48402" lon="5.55739">
        <ele>624.513672</ele>
        <time>2007-09-09T05:39:00Z</time>
      </trkpt>
      <trkpt lat="45.48393" lon="5.55779">
        <ele>624.513672</ele>
        <time>2007-09-09T05:39:08Z</time>
      </trkpt>
      <trkpt lat="45.48383" lon="5.55817">
        <ele>625.474853</ele>
        <time>2007-09-09T05:39:16Z</time>
      </trkpt>
      <trkpt lat="45.48361" lon="5.55848">
        <ele>624.513672</ele>
        <time>2007-09-09T05:39:23Z</time>
      </trkpt>
      <trkpt lat="45.48337" lon="5.55877">
        <ele>622.110352</ele>
        <time>2007-09-09T05:39:29Z</time>
      </trkpt>
      <trkpt lat="45.48307" lon="5.55897">
        <ele>618.264893</ele>
        <time>2007-09-09T05:39:34Z</time>
      </trkpt>
      <trkpt lat="45.48276" lon="5.55903">
        <ele>616.822998</ele>
        <time>2007-09-09T05:39:38Z</time>
      </trkpt>
      <trkpt lat="45.48246" lon="5.55907">
        <ele>616.342285</ele>
        <time>2007-09-09T05:39:42Z</time>
      </trkpt>
      <trkpt lat="45.48217" lon="5.55912">
        <ele>614.419678</ele>
        <time>2007-09-09T05:39:46Z</time>
      </trkpt>
      <trkpt lat="45.48185" lon="5.55913">
        <ele>612.016602</ele>
        <time>2007-09-09T05:39:50Z</time>
      </trkpt>
      <trkpt lat="45.48154" lon="5.55899">
        <ele>611.055176</ele>
        <time>2007-09-09T05:39:54Z</time>
      </trkpt>
      <trkpt lat="45.4813" lon="5.55873">
        <ele>610.09375</ele>
        <time>2007-09-09T05:39:58Z</time>
      </trkpt>
      <trkpt lat="45.48104" lon="5.55845">
        <ele>609.613281</ele>
        <time>2007-09-09T05:40:03Z</time>
      </trkpt>
      <trkpt lat="45.4808" lon="5.55826">
        <ele>607.690674</ele>
        <time>2007-09-09T05:40:07Z</time>
      </trkpt>
      <trkpt lat="45.48055" lon="5.55803">
        <ele>605.768066</ele>
        <time>2007-09-09T05:40:11Z</time>
      </trkpt>
      <trkpt lat="45.48035" lon="5.55772">
        <ele>603.845215</ele>
        <time>2007-09-09T05:40:15Z</time>
      </trkpt>
      <trkpt lat="45.48025" lon="5.55728">
        <ele>601.922607</ele>
        <time>2007-09-09T05:40:18Z</time>
      </trkpt>
      <trkpt lat="45.48016" lon="5.55684">
        <ele>599.038574</ele>
        <time>2007-09-09T05:40:21Z</time>
      </trkpt>
      <trkpt lat="45.48009" lon="5.55646">
        <ele>594.712647</ele>
        <time>2007-09-09T05:40:24Z</time>
      </trkpt>
      <trkpt lat="45.4801" lon="5.55558">
        <ele>582.696289</ele>
        <time>2007-09-09T05:40:32Z</time>
      </trkpt>
      <trkpt lat="45.47995" lon="5.55527">
        <ele>578.851074</ele>
        <time>2007-09-09T05:40:37Z</time>
      </trkpt>
      <trkpt lat="45.47965" lon="5.55528">
        <ele>574.044434</ele>
        <time>2007-09-09T05:40:41Z</time>
      </trkpt>
      <trkpt lat="45.47934" lon="5.55531">
        <ele>566.834473</ele>
        <time>2007-09-09T05:40:45Z</time>
      </trkpt>
      <trkpt lat="45.47911" lon="5.55508">
        <ele>562.989258</ele>
        <time>2007-09-09T05:40:49Z</time>
      </trkpt>
      <trkpt lat="45.47904" lon="5.55468">
        <ele>561.547363</ele>
        <time>2007-09-09T05:40:53Z</time>
      </trkpt>
      <trkpt lat="45.47894" lon="5.55423">
        <ele>561.547363</ele>
        <time>2007-09-09T05:40:58Z</time>
      </trkpt>
      <trkpt lat="45.47888" lon="5.55378">
        <ele>560.585938</ele>
        <time>2007-09-09T05:41:03Z</time>
      </trkpt>
      <trkpt lat="45.47884" lon="5.5534">
        <ele>559.624756</ele>
        <time>2007-09-09T05:41:07Z</time>
      </trkpt>
      <trkpt lat="45.47878" lon="5.55294">
        <ele>557.221435</ele>
        <time>2007-09-09T05:41:12Z</time>
      </trkpt>
      <trkpt lat="45.47878" lon="5.55253">
        <ele>557.221435</ele>
        <time>2007-09-09T05:41:17Z</time>
      </trkpt>
      <trkpt lat="45.4789" lon="5.55215">
        <ele>558.182861</ele>
        <time>2007-09-09T05:41:23Z</time>
      </trkpt>
      <trkpt lat="45.47906" lon="5.55182">
        <ele>556.26001</ele>
        <time>2007-09-09T05:41:29Z</time>
      </trkpt>
      <trkpt lat="45.47932" lon="5.55156">
        <ele>556.26001</ele>
        <time>2007-09-09T05:41:35Z</time>
      </trkpt>
      <trkpt lat="45.48019" lon="5.5512">
        <ele>556.740723</ele>
        <time>2007-09-09T05:41:47Z</time>
      </trkpt>
      <trkpt lat="45.48052" lon="5.55114">
        <ele>556.26001</ele>
        <time>2007-09-09T05:41:52Z</time>
      </trkpt>
      <trkpt lat="45.48082" lon="5.55112">
        <ele>555.298584</ele>
        <time>2007-09-09T05:41:57Z</time>
      </trkpt>
      <trkpt lat="45.48112" lon="5.55092">
        <ele>553.85669</ele>
        <time>2007-09-09T05:42:02Z</time>
      </trkpt>
      <trkpt lat="45.48124" lon="5.55052">
        <ele>553.375977</ele>
        <time>2007-09-09T05:42:07Z</time>
      </trkpt>
      <trkpt lat="45.48115" lon="5.55012">
        <ele>553.85669</ele>
        <time>2007-09-09T05:42:12Z</time>
      </trkpt>
      <trkpt lat="45.48116" lon="5.54974">
        <ele>553.375977</ele>
        <time>2007-09-09T05:42:19Z</time>
      </trkpt>
      <trkpt lat="45.48125" lon="5.54938">
        <ele>554.337402</ele>
        <time>2007-09-09T05:42:28Z</time>
      </trkpt>
      <trkpt lat="45.48144" lon="5.54911">
        <ele>551.934082</ele>
        <time>2007-09-09T05:42:38Z</time>
      </trkpt>
      <trkpt lat="45.48172" lon="5.54894">
        <ele>551.453369</ele>
        <time>2007-09-09T05:42:47Z</time>
      </trkpt>
      <trkpt lat="45.48204" lon="5.54881">
        <ele>550.492188</ele>
        <time>2007-09-09T05:42:57Z</time>
      </trkpt>
      <trkpt lat="45.48308" lon="5.54784">
        <ele>552.895264</ele>
        <time>2007-09-09T05:43:39Z</time>
      </trkpt>
      <trkpt lat="45.48333" lon="5.54765">
        <ele>554.337402</ele>
        <time>2007-09-09T05:43:52Z</time>
      </trkpt>
      <trkpt lat="45.48363" lon="5.54749">
        <ele>556.740723</ele>
        <time>2007-09-09T05:44:06Z</time>
      </trkpt>
      <trkpt lat="45.48394" lon="5.54736">
        <ele>559.624756</ele>
        <time>2007-09-09T05:44:17Z</time>
      </trkpt>
      <trkpt lat="45.48422" lon="5.54718">
        <ele>564.431152</ele>
        <time>2007-09-09T05:44:28Z</time>
      </trkpt>
      <trkpt lat="45.48448" lon="5.54694">
        <ele>569.718506</ele>
        <time>2007-09-09T05:44:39Z</time>
      </trkpt>
      <trkpt lat="45.48473" lon="5.54669">
        <ele>574.525147</ele>
        <time>2007-09-09T05:44:50Z</time>
      </trkpt>
      <trkpt lat="45.48452" lon="5.54629">
        <ele>582.215576</ele>
        <time>2007-09-09T05:45:10Z</time>
      </trkpt>
      <trkpt lat="45.48421" lon="5.54636">
        <ele>585.580078</ele>
        <time>2007-09-09T05:45:18Z</time>
      </trkpt>
      <trkpt lat="45.48391" lon="5.54633">
        <ele>586.541504</ele>
        <time>2007-09-09T05:45:26Z</time>
      </trkpt>
      <trkpt lat="45.48363" lon="5.54624">
        <ele>587.021973</ele>
        <time>2007-09-09T05:45:33Z</time>
      </trkpt>
      <trkpt lat="45.48335" lon="5.54616">
        <ele>587.502685</ele>
        <time>2007-09-09T05:45:40Z</time>
      </trkpt>
      <trkpt lat="45.48306" lon="5.54606">
        <ele>587.502685</ele>
        <time>2007-09-09T05:45:47Z</time>
      </trkpt>
      <trkpt lat="45.4828" lon="5.54591">
        <ele>587.502685</ele>
        <time>2007-09-09T05:45:53Z</time>
      </trkpt>
      <trkpt lat="45.48255" lon="5.54572">
        <ele>587.502685</ele>
        <time>2007-09-09T05:45:59Z</time>
      </trkpt>
      <trkpt lat="45.48231" lon="5.54553">
        <ele>588.945068</ele>
        <time>2007-09-09T05:46:05Z</time>
      </trkpt>
      <trkpt lat="45.48203" lon="5.54533">
        <ele>587.983398</ele>
        <time>2007-09-09T05:46:12Z</time>
      </trkpt>
      <trkpt lat="45.48177" lon="5.54515">
        <ele>586.060791</ele>
        <time>2007-09-09T05:46:18Z</time>
      </trkpt>
      <trkpt lat="45.48182" lon="5.54486">
        <ele>586.060791</ele>
        <time>2007-09-09T05:46:25Z</time>
      </trkpt>
      <trkpt lat="45.48202" lon="5.54457">
        <ele>587.983398</ele>
        <time>2007-09-09T05:46:34Z</time>
      </trkpt>
      <trkpt lat="45.4822" lon="5.54427">
        <ele>589.90625</ele>
        <time>2007-09-09T05:46:43Z</time>
      </trkpt>
      <trkpt lat="45.48239" lon="5.54397">
        <ele>592.790283</ele>
        <time>2007-09-09T05:46:53Z</time>
      </trkpt>
      <trkpt lat="45.48258" lon="5.54368">
        <ele>595.674072</ele>
        <time>2007-09-09T05:47:03Z</time>
      </trkpt>
      <trkpt lat="45.48278" lon="5.5434">
        <ele>598.557861</ele>
        <time>2007-09-09T05:47:13Z</time>
      </trkpt>
      <trkpt lat="45.483" lon="5.54317">
        <ele>601.441894</ele>
        <time>2007-09-09T05:47:23Z</time>
      </trkpt>
      <trkpt lat="45.48321" lon="5.54291">
        <ele>602.883789</ele>
        <time>2007-09-09T05:47:33Z</time>
      </trkpt>
      <trkpt lat="45.48339" lon="5.5426">
        <ele>607.690674</ele>
        <time>2007-09-09T05:47:43Z</time>
      </trkpt>
      <trkpt lat="45.48353" lon="5.54225">
        <ele>609.613281</ele>
        <time>2007-09-09T05:47:53Z</time>
      </trkpt>
      <trkpt lat="45.4837" lon="5.54192">
        <ele>611.055176</ele>
        <time>2007-09-09T05:48:03Z</time>
      </trkpt>
      <trkpt lat="45.48391" lon="5.54165">
        <ele>613.938965</ele>
        <time>2007-09-09T05:48:13Z</time>
      </trkpt>
      <trkpt lat="45.48418" lon="5.54153">
        <ele>615.381103</ele>
        <time>2007-09-09T05:48:23Z</time>
      </trkpt>
      <trkpt lat="45.48446" lon="5.5416">
        <ele>616.342285</ele>
        <time>2007-09-09T05:48:33Z</time>
      </trkpt>
      <trkpt lat="45.48474" lon="5.54151">
        <ele>617.78418</ele>
        <time>2007-09-09T05:48:44Z</time>
      </trkpt>
      <trkpt lat="45.4849" lon="5.54117">
        <ele>619.707031</ele>
        <time>2007-09-09T05:48:55Z</time>
      </trkpt>
      <trkpt lat="45.48506" lon="5.54083">
        <ele>621.629639</ele>
        <time>2007-09-09T05:49:07Z</time>
      </trkpt>
      <trkpt lat="45.4852" lon="5.54049">
        <ele>623.55249</ele>
        <time>2007-09-09T05:49:19Z</time>
      </trkpt>
      <trkpt lat="45.48525" lon="5.54011">
        <ele>626.436279</ele>
        <time>2007-09-09T05:49:31Z</time>
      </trkpt>
      <trkpt lat="45.48527" lon="5.53971">
        <ele>628.358887</ele>
        <time>2007-09-09T05:49:46Z</time>
      </trkpt>
      <trkpt lat="45.48534" lon="5.5393">
        <ele>631.723389</ele>
        <time>2007-09-09T05:50:07Z</time>
      </trkpt>
      <trkpt lat="45.48555" lon="5.53893">
        <ele>636.04956</ele>
        <time>2007-09-09T05:50:22Z</time>
      </trkpt>
      <trkpt lat="45.48573" lon="5.53859">
        <ele>640.855957</ele>
        <time>2007-09-09T05:50:37Z</time>
      </trkpt>
      <trkpt lat="45.4859" lon="5.53825">
        <ele>643.259277</ele>
        <time>2007-09-09T05:50:51Z</time>
      </trkpt>
      <trkpt lat="45.48607" lon="5.53791">
        <ele>644.701172</ele>
        <time>2007-09-09T05:51:04Z</time>
      </trkpt>
      <trkpt lat="45.48624" lon="5.53758">
        <ele>647.104492</ele>
        <time>2007-09-09T05:51:17Z</time>
      </trkpt>
      <trkpt lat="45.48643" lon="5.53728">
        <ele>649.0271</ele>
        <time>2007-09-09T05:51:30Z</time>
      </trkpt>
      <trkpt lat="45.48669" lon="5.53709">
        <ele>648.546387</ele>
        <time>2007-09-09T05:51:41Z</time>
      </trkpt>
      <trkpt lat="45.48698" lon="5.53696">
        <ele>648.546387</ele>
        <time>2007-09-09T05:51:51Z</time>
      </trkpt>
      <trkpt lat="45.48727" lon="5.53681">
        <ele>648.546387</ele>
        <time>2007-09-09T05:52:00Z</time>
      </trkpt>
      <trkpt lat="45.48749" lon="5.53658">
        <ele>648.065918</ele>
        <time>2007-09-09T05:52:11Z</time>
      </trkpt>
      <trkpt lat="45.48727" lon="5.53622">
        <ele>647.104492</ele>
        <time>2007-09-09T05:52:22Z</time>
      </trkpt>
      <trkpt lat="45.48705" lon="5.53587">
        <ele>647.104492</ele>
        <time>2007-09-09T05:52:31Z</time>
      </trkpt>
      <trkpt lat="45.48682" lon="5.53559">
        <ele>649.0271</ele>
        <time>2007-09-09T05:52:41Z</time>
      </trkpt>
      <trkpt lat="45.48658" lon="5.53528">
        <ele>649.507813</ele>
        <time>2007-09-09T05:52:52Z</time>
      </trkpt>
      <trkpt lat="45.48633" lon="5.535">
        <ele>650.469238</ele>
        <time>2007-09-09T05:53:03Z</time>
      </trkpt>
      <trkpt lat="45.48611" lon="5.53476">
        <ele>653.353272</ele>
        <time>2007-09-09T05:53:13Z</time>
      </trkpt>
      <trkpt lat="45.48586" lon="5.53454">
        <ele>655.275879</ele>
        <time>2007-09-09T05:53:24Z</time>
      </trkpt>
      <trkpt lat="45.48561" lon="5.53435">
        <ele>655.756592</ele>
        <time>2007-09-09T05:53:36Z</time>
      </trkpt>
      <trkpt lat="45.48531" lon="5.53422">
        <ele>654.795166</ele>
        <time>2007-09-09T05:53:48Z</time>
      </trkpt>
      <trkpt lat="45.48505" lon="5.53397">
        <ele>659.601807</ele>
        <time>2007-09-09T05:53:58Z</time>
      </trkpt>
      <trkpt lat="45.48479" lon="5.5337">
        <ele>659.601807</ele>
        <time>2007-09-09T05:54:06Z</time>
      </trkpt>
      <trkpt lat="45.48454" lon="5.53343">
        <ele>659.601807</ele>
        <time>2007-09-09T05:54:13Z</time>
      </trkpt>
      <trkpt lat="45.48431" lon="5.53319">
        <ele>659.601807</ele>
        <time>2007-09-09T05:54:19Z</time>
      </trkpt>
      <trkpt lat="45.48404" lon="5.53293">
        <ele>660.082275</ele>
        <time>2007-09-09T05:54:26Z</time>
      </trkpt>
      <trkpt lat="45.48379" lon="5.53267">
        <ele>660.562988</ele>
        <time>2007-09-09T05:54:33Z</time>
      </trkpt>
      <trkpt lat="45.48358" lon="5.53236">
        <ele>661.043701</ele>
        <time>2007-09-09T05:54:40Z</time>
      </trkpt>
      <trkpt lat="45.48339" lon="5.532">
        <ele>661.043701</ele>
        <time>2007-09-09T05:54:47Z</time>
      </trkpt>
      <trkpt lat="45.48319" lon="5.53174">
        <ele>660.082275</ele>
        <time>2007-09-09T05:54:53Z</time>
      </trkpt>
      <trkpt lat="45.48295" lon="5.53148">
        <ele>660.082275</ele>
        <time>2007-09-09T05:55:00Z</time>
      </trkpt>
      <trkpt lat="45.48214" lon="5.53092">
        <ele>660.562988</ele>
        <time>2007-09-09T05:55:21Z</time>
      </trkpt>
      <trkpt lat="45.48192" lon="5.53107">
        <ele>663.447022</ele>
        <time>2007-09-09T05:55:31Z</time>
      </trkpt>
      <trkpt lat="45.48166" lon="5.53094">
        <ele>665.850342</ele>
        <time>2007-09-09T05:55:42Z</time>
      </trkpt>
      <trkpt lat="45.48142" lon="5.53074">
        <ele>666.33081</ele>
        <time>2007-09-09T05:55:51Z</time>
      </trkpt>
      <trkpt lat="45.48117" lon="5.53052">
        <ele>665.369629</ele>
        <time>2007-09-09T05:56:00Z</time>
      </trkpt>
      <trkpt lat="45.48092" lon="5.53033">
        <ele>665.850342</ele>
        <time>2007-09-09T05:56:09Z</time>
      </trkpt>
      <trkpt lat="45.48067" lon="5.53013">
        <ele>666.811523</ele>
        <time>2007-09-09T05:56:18Z</time>
      </trkpt>
      <trkpt lat="45.48044" lon="5.52991">
        <ele>666.33081</ele>
        <time>2007-09-09T05:56:26Z</time>
      </trkpt>
      <trkpt lat="45.48" lon="5.52938">
        <ele>666.33081</ele>
        <time>2007-09-09T05:56:43Z</time>
      </trkpt>
      <trkpt lat="45.4793" lon="5.52859">
        <ele>667.292236</ele>
        <time>2007-09-09T05:57:07Z</time>
      </trkpt>
      <trkpt lat="45.47904" lon="5.52839">
        <ele>668.734375</ele>
        <time>2007-09-09T05:57:17Z</time>
      </trkpt>
      <trkpt lat="45.47845" lon="5.52832">
        <ele>671.618164</ele>
        <time>2007-09-09T05:57:43Z</time>
      </trkpt>
      <trkpt lat="45.47818" lon="5.52831">
        <ele>674.98291</ele>
        <time>2007-09-09T05:57:56Z</time>
      </trkpt>
      <trkpt lat="45.47788" lon="5.52832">
        <ele>675.463379</ele>
        <time>2007-09-09T05:58:11Z</time>
      </trkpt>
      <trkpt lat="45.47759" lon="5.5283">
        <ele>679.789307</ele>
        <time>2007-09-09T05:58:28Z</time>
      </trkpt>
      <trkpt lat="45.47728" lon="5.52827">
        <ele>680.270019</ele>
        <time>2007-09-09T05:58:45Z</time>
      </trkpt>
      <trkpt lat="45.47576" lon="5.52757">
        <ele>685.076904</ele>
        <time>2007-09-09T05:59:44Z</time>
      </trkpt>
      <trkpt lat="45.47545" lon="5.52733">
        <ele>686.518799</ele>
        <time>2007-09-09T05:59:51Z</time>
      </trkpt>
      <trkpt lat="45.47514" lon="5.52717">
        <ele>687.479981</ele>
        <time>2007-09-09T05:59:58Z</time>
      </trkpt>
      <trkpt lat="45.47423" lon="5.52692">
        <ele>690.844482</ele>
        <time>2007-09-09T06:00:25Z</time>
      </trkpt>
      <trkpt lat="45.47394" lon="5.52671">
        <ele>692.767334</ele>
        <time>2007-09-09T06:00:37Z</time>
      </trkpt>
      <trkpt lat="45.47362" lon="5.52659">
        <ele>691.805908</ele>
        <time>2007-09-09T06:00:48Z</time>
      </trkpt>
      <trkpt lat="45.47329" lon="5.52645">
        <ele>695.651123</ele>
        <time>2007-09-09T06:00:58Z</time>
      </trkpt>
      <trkpt lat="45.47269" lon="5.5261">
        <ele>699.496338</ele>
        <time>2007-09-09T06:01:18Z</time>
      </trkpt>
      <trkpt lat="45.47211" lon="5.52576">
        <ele>699.977051</ele>
        <time>2007-09-09T06:01:36Z</time>
      </trkpt>
      <trkpt lat="45.47119" lon="5.5248">
        <ele>700.938477</ele>
        <time>2007-09-09T06:02:09Z</time>
      </trkpt>
      <trkpt lat="45.47082" lon="5.52468">
        <ele>704.303223</ele>
        <time>2007-09-09T06:02:20Z</time>
      </trkpt>
      <trkpt lat="45.47049" lon="5.52485">
        <ele>702.861084</ele>
        <time>2007-09-09T06:02:30Z</time>
      </trkpt>
      <trkpt lat="45.4702" lon="5.52606">
        <ele>708.148438</ele>
        <time>2007-09-09T06:03:13Z</time>
      </trkpt>
      <trkpt lat="45.47014" lon="5.52677">
        <ele>708.628906</ele>
        <time>2007-09-09T06:03:29Z</time>
      </trkpt>
      <trkpt lat="45.46924" lon="5.52722">
        <ele>708.148438</ele>
        <time>2007-09-09T06:03:58Z</time>
      </trkpt>
      <trkpt lat="45.4689" lon="5.52736">
        <ele>708.148438</ele>
        <time>2007-09-09T06:04:08Z</time>
      </trkpt>
      <trkpt lat="45.46756" lon="5.52741">
        <ele>706.706299</ele>
        <time>2007-09-09T06:04:42Z</time>
      </trkpt>
      <trkpt lat="45.46618" lon="5.52748">
        <ele>703.82251</ele>
        <time>2007-09-09T06:04:55Z</time>
      </trkpt>
      <trkpt lat="45.46562" lon="5.52735">
        <ele>700.458008</ele>
        <time>2007-09-09T06:05:31Z</time>
      </trkpt>
      <trkpt lat="45.46573" lon="5.52794">
        <ele>699.496338</ele>
        <time>2007-09-09T06:05:37Z</time>
      </trkpt>
      <trkpt lat="45.46593" lon="5.52832">
        <ele>696.612549</ele>
        <time>2007-09-09T06:05:44Z</time>
      </trkpt>
      <trkpt lat="45.46637" lon="5.52894">
        <ele>695.651123</ele>
        <time>2007-09-09T06:05:58Z</time>
      </trkpt>
      <trkpt lat="45.46681" lon="5.52942">
        <ele>688.922119</ele>
        <time>2007-09-09T06:06:12Z</time>
      </trkpt>
      <trkpt lat="45.46699" lon="5.52977">
        <ele>685.076904</ele>
        <time>2007-09-09T06:06:18Z</time>
      </trkpt>
      <trkpt lat="45.46723" lon="5.53001">
        <ele>679.789307</ele>
        <time>2007-09-09T06:06:24Z</time>
      </trkpt>
      <trkpt lat="45.46749" lon="5.5302">
        <ele>677.866699</ele>
        <time>2007-09-09T06:06:30Z</time>
      </trkpt>
      <trkpt lat="45.46774" lon="5.53045">
        <ele>676.905518</ele>
        <time>2007-09-09T06:06:36Z</time>
      </trkpt>
      <trkpt lat="45.468" lon="5.53071">
        <ele>675.944092</ele>
        <time>2007-09-09T06:06:42Z</time>
      </trkpt>
      <trkpt lat="45.46829" lon="5.53089">
        <ele>673.541016</ele>
        <time>2007-09-09T06:06:48Z</time>
      </trkpt>
      <trkpt lat="45.46857" lon="5.531">
        <ele>670.176269</ele>
        <time>2007-09-09T06:06:53Z</time>
      </trkpt>
      <trkpt lat="45.46887" lon="5.53114">
        <ele>666.33081</ele>
        <time>2007-09-09T06:06:58Z</time>
      </trkpt>
      <trkpt lat="45.46913" lon="5.53134">
        <ele>663.447022</ele>
        <time>2007-09-09T06:07:03Z</time>
      </trkpt>
      <trkpt lat="45.46903" lon="5.53165">
        <ele>657.679199</ele>
        <time>2007-09-09T06:07:07Z</time>
      </trkpt>
      <trkpt lat="45.46869" lon="5.53178">
        <ele>650.469238</ele>
        <time>2007-09-09T06:07:11Z</time>
      </trkpt>
      <trkpt lat="45.46729" lon="5.53217">
        <ele>644.220703</ele>
        <time>2007-09-09T06:07:28Z</time>
      </trkpt>
      <trkpt lat="45.46697" lon="5.53151">
        <ele>643.73999</ele>
        <time>2007-09-09T06:07:43Z</time>
      </trkpt>
      <trkpt lat="45.46675" lon="5.53128">
        <ele>641.33667</ele>
        <time>2007-09-09T06:07:52Z</time>
      </trkpt>
      <trkpt lat="45.46649" lon="5.53114">
        <ele>639.414063</ele>
        <time>2007-09-09T06:08:00Z</time>
      </trkpt>
      <trkpt lat="45.46621" lon="5.53105">
        <ele>637.972168</ele>
        <time>2007-09-09T06:08:08Z</time>
      </trkpt>
      <trkpt lat="45.46593" lon="5.53101">
        <ele>635.568603</ele>
        <time>2007-09-09T06:08:14Z</time>
      </trkpt>
      <trkpt lat="45.46563" lon="5.53103">
        <ele>634.607422</ele>
        <time>2007-09-09T06:08:20Z</time>
      </trkpt>
      <trkpt lat="45.46535" lon="5.53099">
        <ele>634.126709</ele>
        <time>2007-09-09T06:08:26Z</time>
      </trkpt>
      <trkpt lat="45.46512" lon="5.53082">
        <ele>631.723389</ele>
        <time>2007-09-09T06:08:32Z</time>
      </trkpt>
      <trkpt lat="45.46484" lon="5.53063">
        <ele>629.800781</ele>
        <time>2007-09-09T06:08:38Z</time>
      </trkpt>
      <trkpt lat="45.46458" lon="5.53048">
        <ele>627.397705</ele>
        <time>2007-09-09T06:08:43Z</time>
      </trkpt>
      <trkpt lat="45.46429" lon="5.53037">
        <ele>624.994385</ele>
        <time>2007-09-09T06:08:49Z</time>
      </trkpt>
      <trkpt lat="45.46401" lon="5.53034">
        <ele>621.629639</ele>
        <time>2007-09-09T06:08:55Z</time>
      </trkpt>
      <trkpt lat="45.46373" lon="5.53035">
        <ele>621.14917</ele>
        <time>2007-09-09T06:09:01Z</time>
      </trkpt>
      <trkpt lat="45.46343" lon="5.53042">
        <ele>621.14917</ele>
        <time>2007-09-09T06:09:07Z</time>
      </trkpt>
      <trkpt lat="45.46247" lon="5.53071">
        <ele>620.668457</ele>
        <time>2007-09-09T06:09:25Z</time>
      </trkpt>
      <trkpt lat="45.46191" lon="5.5309">
        <ele>626.916992</ele>
        <time>2007-09-06T16:31:54Z</time>
      </trkpt>
      <trkpt lat="45.46132" lon="5.53109">
        <ele>627.397705</ele>
        <time>2007-09-06T16:32:08Z</time>
      </trkpt>
      <trkpt lat="45.46105" lon="5.531">
        <ele>627.397705</ele>
        <time>2007-09-06T16:32:15Z</time>
      </trkpt>
      <trkpt lat="45.46024" lon="5.52976">
        <ele>628.8396</ele>
        <time>2007-09-06T16:32:46Z</time>
      </trkpt>
      <trkpt lat="45.4601" lon="5.52933">
        <ele>629.800781</ele>
        <time>2007-09-06T16:32:54Z</time>
      </trkpt>
      <trkpt lat="45.45995" lon="5.52895">
        <ele>630.762207</ele>
        <time>2007-09-06T16:33:04Z</time>
      </trkpt>
      <trkpt lat="45.45977" lon="5.52862">
        <ele>630.762207</ele>
        <time>2007-09-06T16:33:12Z</time>
      </trkpt>
      <trkpt lat="45.45958" lon="5.52828">
        <ele>631.723389</ele>
        <time>2007-09-06T16:33:20Z</time>
      </trkpt>
      <trkpt lat="45.45937" lon="5.52745">
        <ele>632.204102</ele>
        <time>2007-09-06T16:33:37Z</time>
      </trkpt>
      <trkpt lat="45.45916" lon="5.52665">
        <ele>629.800781</ele>
        <time>2007-09-06T16:33:49Z</time>
      </trkpt>
      <trkpt lat="45.45894" lon="5.52572">
        <ele>619.707031</ele>
        <time>2007-09-06T16:34:06Z</time>
      </trkpt>
      <trkpt lat="45.45896" lon="5.5252">
        <ele>613.458496</ele>
        <time>2007-09-06T16:34:13Z</time>
      </trkpt>
      <trkpt lat="45.459" lon="5.52473">
        <ele>608.651856</ele>
        <time>2007-09-06T16:34:20Z</time>
      </trkpt>
      <trkpt lat="45.45915" lon="5.52435">
        <ele>607.209961</ele>
        <time>2007-09-06T16:34:26Z</time>
      </trkpt>
      <trkpt lat="45.45945" lon="5.52426">
        <ele>606.729248</ele>
        <time>2007-09-06T16:34:32Z</time>
      </trkpt>
      <trkpt lat="45.45978" lon="5.52425">
        <ele>605.768066</ele>
        <time>2007-09-06T16:34:39Z</time>
      </trkpt>
      <trkpt lat="45.46008" lon="5.52434">
        <ele>605.287353</ele>
        <time>2007-09-06T16:34:46Z</time>
      </trkpt>
      <trkpt lat="45.46038" lon="5.52445">
        <ele>605.287353</ele>
        <time>2007-09-06T16:34:53Z</time>
      </trkpt>
      <trkpt lat="45.46067" lon="5.52424">
        <ele>607.209961</ele>
        <time>2007-09-06T16:35:01Z</time>
      </trkpt>
      <trkpt lat="45.46083" lon="5.52364">
        <ele>602.883789</ele>
        <time>2007-09-09T06:13:10Z</time>
      </trkpt>
      <trkpt lat="45.46092" lon="5.52325">
        <ele>603.364502</ele>
        <time>2007-09-09T06:13:18Z</time>
      </trkpt>
      <trkpt lat="45.46102" lon="5.52286">
        <ele>603.845215</ele>
        <time>2007-09-09T06:13:26Z</time>
      </trkpt>
      <trkpt lat="45.46118" lon="5.5225">
        <ele>604.806641</ele>
        <time>2007-09-09T06:13:35Z</time>
      </trkpt>
      <trkpt lat="45.46142" lon="5.52222">
        <ele>605.768066</ele>
        <time>2007-09-09T06:13:43Z</time>
      </trkpt>
      <trkpt lat="45.46167" lon="5.52199">
        <ele>607.209961</ele>
        <time>2007-09-09T06:13:50Z</time>
      </trkpt>
      <trkpt lat="45.4619" lon="5.52173">
        <ele>608.171387</ele>
        <time>2007-09-09T06:13:58Z</time>
      </trkpt>
      <trkpt lat="45.46217" lon="5.52145">
        <ele>608.171387</ele>
        <time>2007-09-09T06:14:06Z</time>
      </trkpt>
      <trkpt lat="45.46203" lon="5.5213">
        <ele>608.171387</ele>
        <time>2007-09-09T06:14:14Z</time>
      </trkpt>
      <trkpt lat="45.46174" lon="5.52123">
        <ele>608.651856</ele>
        <time>2007-09-09T06:14:23Z</time>
      </trkpt>
      <trkpt lat="45.46146" lon="5.52105">
        <ele>608.171387</ele>
        <time>2007-09-09T06:14:31Z</time>
      </trkpt>
      <trkpt lat="45.46121" lon="5.5208">
        <ele>607.690674</ele>
        <time>2007-09-09T06:14:39Z</time>
      </trkpt>
      <trkpt lat="45.46098" lon="5.52057">
        <ele>607.690674</ele>
        <time>2007-09-09T06:14:45Z</time>
      </trkpt>
      <trkpt lat="45.46072" lon="5.52032">
        <ele>607.690674</ele>
        <time>2007-09-09T06:14:51Z</time>
      </trkpt>
      <trkpt lat="45.46047" lon="5.52007">
        <ele>607.209961</ele>
        <time>2007-09-09T06:14:57Z</time>
      </trkpt>
      <trkpt lat="45.46024" lon="5.51982">
        <ele>606.729248</ele>
        <time>2007-09-09T06:15:02Z</time>
      </trkpt>
      <trkpt lat="45.46002" lon="5.5195">
        <ele>606.248535</ele>
        <time>2007-09-09T06:15:08Z</time>
      </trkpt>
      <trkpt lat="45.45983" lon="5.51921">
        <ele>607.209961</ele>
        <time>2007-09-09T06:15:13Z</time>
      </trkpt>
      <trkpt lat="45.45972" lon="5.51878">
        <ele>606.729248</ele>
        <time>2007-09-09T06:15:18Z</time>
      </trkpt>
      <trkpt lat="45.45958" lon="5.5184">
        <ele>606.248535</ele>
        <time>2007-09-09T06:15:23Z</time>
      </trkpt>
      <trkpt lat="45.45944" lon="5.51798">
        <ele>603.364502</ele>
        <time>2007-09-09T06:15:28Z</time>
      </trkpt>
      <trkpt lat="45.45946" lon="5.51749">
        <ele>599.038574</ele>
        <time>2007-09-09T06:15:32Z</time>
      </trkpt>
      <trkpt lat="45.45951" lon="5.5171">
        <ele>597.59668</ele>
        <time>2007-09-09T06:15:35Z</time>
      </trkpt>
      <trkpt lat="45.45956" lon="5.51674">
        <ele>596.154785</ele>
        <time>2007-09-09T06:15:38Z</time>
      </trkpt>
      <trkpt lat="45.45971" lon="5.51632">
        <ele>587.983398</ele>
        <time>2007-09-09T06:15:42Z</time>
      </trkpt>
      <trkpt lat="45.45975" lon="5.51589">
        <ele>581.734863</ele>
        <time>2007-09-09T06:15:46Z</time>
      </trkpt>
      <trkpt lat="45.45961" lon="5.51546">
        <ele>576.928467</ele>
        <time>2007-09-09T06:15:50Z</time>
      </trkpt>
      <trkpt lat="45.45938" lon="5.51518">
        <ele>575.486328</ele>
        <time>2007-09-09T06:15:53Z</time>
      </trkpt>
      <trkpt lat="45.45915" lon="5.51499">
        <ele>573.083252</ele>
        <time>2007-09-09T06:15:56Z</time>
      </trkpt>
      <trkpt lat="45.45882" lon="5.51494">
        <ele>568.276367</ele>
        <time>2007-09-09T06:16:00Z</time>
      </trkpt>
      <trkpt lat="45.45852" lon="5.51498">
        <ele>565.392578</ele>
        <time>2007-09-09T06:16:04Z</time>
      </trkpt>
      <trkpt lat="45.45837" lon="5.51469">
        <ele>562.508545</ele>
        <time>2007-09-09T06:16:08Z</time>
      </trkpt>
      <trkpt lat="45.45823" lon="5.51424">
        <ele>557.221435</ele>
        <time>2007-09-09T06:16:12Z</time>
      </trkpt>
      <trkpt lat="45.45805" lon="5.51384">
        <ele>553.375977</ele>
        <time>2007-09-09T06:16:16Z</time>
      </trkpt>
      <trkpt lat="45.45789" lon="5.51353">
        <ele>547.608154</ele>
        <time>2007-09-09T06:16:20Z</time>
      </trkpt>
      <trkpt lat="45.45781" lon="5.51314">
        <ele>543.282104</ele>
        <time>2007-09-09T06:16:24Z</time>
      </trkpt>
      <trkpt lat="45.45757" lon="5.51281">
        <ele>539.43689</ele>
        <time>2007-09-09T06:16:28Z</time>
      </trkpt>
      <trkpt lat="45.45728" lon="5.51254">
        <ele>535.591553</ele>
        <time>2007-09-09T06:16:32Z</time>
      </trkpt>
      <trkpt lat="45.45701" lon="5.51227">
        <ele>533.188354</ele>
        <time>2007-09-09T06:16:36Z</time>
      </trkpt>
      <trkpt lat="45.4569" lon="5.51187">
        <ele>530.785156</ele>
        <time>2007-09-09T06:16:40Z</time>
      </trkpt>
      <trkpt lat="45.45705" lon="5.51152">
        <ele>528.862549</ele>
        <time>2007-09-09T06:16:44Z</time>
      </trkpt>
      <trkpt lat="45.45723" lon="5.51116">
        <ele>527.901001</ele>
        <time>2007-09-09T06:16:48Z</time>
      </trkpt>
      <trkpt lat="45.45742" lon="5.51085">
        <ele>526.459106</ele>
        <time>2007-09-09T06:16:52Z</time>
      </trkpt>
      <trkpt lat="45.45759" lon="5.51055">
        <ele>525.497803</ele>
        <time>2007-09-09T06:16:56Z</time>
      </trkpt>
      <trkpt lat="45.45776" lon="5.51025">
        <ele>523.575195</ele>
        <time>2007-09-09T06:17:00Z</time>
      </trkpt>
      <trkpt lat="45.45796" lon="5.50988">
        <ele>523.575195</ele>
        <time>2007-09-09T06:17:05Z</time>
      </trkpt>
      <trkpt lat="45.45809" lon="5.50948">
        <ele>523.094604</ele>
        <time>2007-09-09T06:17:10Z</time>
      </trkpt>
      <trkpt lat="45.45792" lon="5.50925">
        <ele>522.133179</ele>
        <time>2007-09-09T06:17:15Z</time>
      </trkpt>
      <trkpt lat="45.45764" lon="5.50905">
        <ele>521.171997</ele>
        <time>2007-09-09T06:17:20Z</time>
      </trkpt>
      <trkpt lat="45.45741" lon="5.50878">
        <ele>520.210571</ele>
        <time>2007-09-09T06:17:25Z</time>
      </trkpt>
      <trkpt lat="45.45722" lon="5.50845">
        <ele>519.729858</ele>
        <time>2007-09-09T06:17:30Z</time>
      </trkpt>
      <trkpt lat="45.45702" lon="5.5081">
        <ele>519.729858</ele>
        <time>2007-09-09T06:17:36Z</time>
      </trkpt>
      <trkpt lat="45.4569" lon="5.50776">
        <ele>519.249268</ele>
        <time>2007-09-09T06:17:42Z</time>
      </trkpt>
      <trkpt lat="45.45686" lon="5.50734">
        <ele>520.210571</ele>
        <time>2007-09-09T06:17:50Z</time>
      </trkpt>
      <trkpt lat="45.45683" lon="5.5069">
        <ele>522.133179</ele>
        <time>2007-09-09T06:17:58Z</time>
      </trkpt>
      <trkpt lat="45.45678" lon="5.50651">
        <ele>522.613892</ele>
        <time>2007-09-09T06:18:05Z</time>
      </trkpt>
      <trkpt lat="45.45675" lon="5.5061">
        <ele>522.133179</ele>
        <time>2007-09-09T06:18:12Z</time>
      </trkpt>
      <trkpt lat="45.45669" lon="5.50569">
        <ele>522.613892</ele>
        <time>2007-09-09T06:18:19Z</time>
      </trkpt>
      <trkpt lat="45.45661" lon="5.5053">
        <ele>524.055786</ele>
        <time>2007-09-09T06:18:26Z</time>
      </trkpt>
      <trkpt lat="45.4564" lon="5.5053">
        <ele>525.017212</ele>
        <time>2007-09-09T06:18:36Z</time>
      </trkpt>
      <trkpt lat="45.45619" lon="5.50557">
        <ele>524.536499</ele>
        <time>2007-09-09T06:18:42Z</time>
      </trkpt>
      <trkpt lat="45.45593" lon="5.50579">
        <ele>524.536499</ele>
        <time>2007-09-09T06:18:48Z</time>
      </trkpt>
      <trkpt lat="45.45565" lon="5.50595">
        <ele>524.055786</ele>
        <time>2007-09-09T06:18:53Z</time>
      </trkpt>
      <trkpt lat="45.45537" lon="5.50617">
        <ele>524.055786</ele>
        <time>2007-09-09T06:18:58Z</time>
      </trkpt>
      <trkpt lat="45.45508" lon="5.50642">
        <ele>523.575195</ele>
        <time>2007-09-09T06:19:03Z</time>
      </trkpt>
      <trkpt lat="45.45479" lon="5.50664">
        <ele>523.094604</ele>
        <time>2007-09-09T06:19:08Z</time>
      </trkpt>
      <trkpt lat="45.4545" lon="5.50686">
        <ele>523.575195</ele>
        <time>2007-09-09T06:19:13Z</time>
      </trkpt>
      <trkpt lat="45.45423" lon="5.50714">
        <ele>523.575195</ele>
        <time>2007-09-09T06:19:18Z</time>
      </trkpt>
      <trkpt lat="45.45399" lon="5.50743">
        <ele>524.536499</ele>
        <time>2007-09-09T06:19:23Z</time>
      </trkpt>
      <trkpt lat="45.45371" lon="5.50751">
        <ele>525.497803</ele>
        <time>2007-09-09T06:19:28Z</time>
      </trkpt>
      <trkpt lat="45.45343" lon="5.50756">
        <ele>525.978394</ele>
        <time>2007-09-09T06:19:34Z</time>
      </trkpt>
      <trkpt lat="45.45317" lon="5.50762">
        <ele>527.42041</ele>
        <time>2007-09-09T06:19:43Z</time>
      </trkpt>
      <trkpt lat="45.45299" lon="5.50788">
        <ele>528.381836</ele>
        <time>2007-09-09T06:19:53Z</time>
      </trkpt>
      <trkpt lat="45.45278" lon="5.50816">
        <ele>530.304443</ele>
        <time>2007-09-09T06:20:02Z</time>
      </trkpt>
      <trkpt lat="45.45255" lon="5.50835">
        <ele>532.707764</ele>
        <time>2007-09-09T06:20:10Z</time>
      </trkpt>
      <trkpt lat="45.45228" lon="5.50849">
        <ele>533.668945</ele>
        <time>2007-09-09T06:20:17Z</time>
      </trkpt>
      <trkpt lat="45.45202" lon="5.50857">
        <ele>534.149658</ele>
        <time>2007-09-09T06:20:23Z</time>
      </trkpt>
      <trkpt lat="45.45172" lon="5.50861">
        <ele>535.591553</ele>
        <time>2007-09-09T06:20:30Z</time>
      </trkpt>
      <trkpt lat="45.45144" lon="5.50865">
        <ele>536.553101</ele>
        <time>2007-09-09T06:20:37Z</time>
      </trkpt>
      <trkpt lat="45.45113" lon="5.5087">
        <ele>536.072388</ele>
        <time>2007-09-09T06:20:44Z</time>
      </trkpt>
      <trkpt lat="45.45085" lon="5.5087">
        <ele>536.072388</ele>
        <time>2007-09-09T06:20:50Z</time>
      </trkpt>
      <trkpt lat="45.45057" lon="5.50872">
        <ele>535.591553</ele>
        <time>2007-09-09T06:20:56Z</time>
      </trkpt>
      <trkpt lat="45.45029" lon="5.50889">
        <ele>533.188354</ele>
        <time>2007-09-09T06:21:01Z</time>
      </trkpt>
      <trkpt lat="45.44997" lon="5.50904">
        <ele>531.746338</ele>
        <time>2007-09-09T06:21:06Z</time>
      </trkpt>
      <trkpt lat="45.4497" lon="5.50914">
        <ele>531.265747</ele>
        <time>2007-09-09T06:21:10Z</time>
      </trkpt>
      <trkpt lat="45.44938" lon="5.5093">
        <ele>531.265747</ele>
        <time>2007-09-09T06:21:15Z</time>
      </trkpt>
      <trkpt lat="45.4491" lon="5.50949">
        <ele>531.746338</ele>
        <time>2007-09-09T06:21:20Z</time>
      </trkpt>
      <trkpt lat="45.44883" lon="5.50966">
        <ele>532.707764</ele>
        <time>2007-09-09T06:21:25Z</time>
      </trkpt>
      <trkpt lat="45.44855" lon="5.50966">
        <ele>534.149658</ele>
        <time>2007-09-09T06:21:30Z</time>
      </trkpt>
      <trkpt lat="45.44827" lon="5.50943">
        <ele>532.707764</ele>
        <time>2007-09-09T06:21:35Z</time>
      </trkpt>
      <trkpt lat="45.44806" lon="5.50911">
        <ele>530.304443</ele>
        <time>2007-09-09T06:21:40Z</time>
      </trkpt>
      <trkpt lat="45.4478" lon="5.5089">
        <ele>528.381836</ele>
        <time>2007-09-09T06:21:47Z</time>
      </trkpt>
      <trkpt lat="45.44752" lon="5.50879">
        <ele>526.459106</ele>
        <time>2007-09-09T06:21:52Z</time>
      </trkpt>
      <trkpt lat="45.44721" lon="5.50882">
        <ele>524.536499</ele>
        <time>2007-09-09T06:21:57Z</time>
      </trkpt>
      <trkpt lat="45.44693" lon="5.50901">
        <ele>523.094604</ele>
        <time>2007-09-09T06:22:02Z</time>
      </trkpt>
      <trkpt lat="45.44649" lon="5.50953">
        <ele>524.055786</ele>
        <time>2007-09-09T06:22:12Z</time>
      </trkpt>
      <trkpt lat="45.44623" lon="5.50981">
        <ele>523.575195</ele>
        <time>2007-09-09T06:22:18Z</time>
      </trkpt>
      <trkpt lat="45.44599" lon="5.51">
        <ele>525.017212</ele>
        <time>2007-09-09T06:22:25Z</time>
      </trkpt>
      <trkpt lat="45.44572" lon="5.51002">
        <ele>526.459106</ele>
        <time>2007-09-09T06:22:38Z</time>
      </trkpt>
      <trkpt lat="45.44546" lon="5.50993">
        <ele>529.34314</ele>
        <time>2007-09-09T06:22:52Z</time>
      </trkpt>
      <trkpt lat="45.44519" lon="5.50987">
        <ele>532.227051</ele>
        <time>2007-09-09T06:23:06Z</time>
      </trkpt>
      <trkpt lat="45.44492" lon="5.50986">
        <ele>534.149658</ele>
        <time>2007-09-09T06:23:18Z</time>
      </trkpt>
      <trkpt lat="45.44463" lon="5.50981">
        <ele>535.110962</ele>
        <time>2007-09-09T06:23:27Z</time>
      </trkpt>
      <trkpt lat="45.44435" lon="5.50977">
        <ele>537.994995</ele>
        <time>2007-09-09T06:23:37Z</time>
      </trkpt>
      <trkpt lat="45.44406" lon="5.50973">
        <ele>539.43689</ele>
        <time>2007-09-09T06:23:47Z</time>
      </trkpt>
      <trkpt lat="45.44375" lon="5.5097">
        <ele>538.956299</ele>
        <time>2007-09-09T06:23:57Z</time>
      </trkpt>
      <trkpt lat="45.44347" lon="5.50967">
        <ele>538.956299</ele>
        <time>2007-09-09T06:24:04Z</time>
      </trkpt>
      <trkpt lat="45.44317" lon="5.50964">
        <ele>538.475708</ele>
        <time>2007-09-09T06:24:11Z</time>
      </trkpt>
      <trkpt lat="45.44285" lon="5.50964">
        <ele>537.514282</ele>
        <time>2007-09-09T06:24:18Z</time>
      </trkpt>
      <trkpt lat="45.44257" lon="5.50966">
        <ele>537.994995</ele>
        <time>2007-09-09T06:24:24Z</time>
      </trkpt>
      <trkpt lat="45.4423" lon="5.50969">
        <ele>538.956299</ele>
        <time>2007-09-09T06:24:30Z</time>
      </trkpt>
      <trkpt lat="45.44202" lon="5.50977">
        <ele>538.956299</ele>
        <time>2007-09-09T06:24:36Z</time>
      </trkpt>
      <trkpt lat="45.4417" lon="5.50984">
        <ele>539.917603</ele>
        <time>2007-09-09T06:24:42Z</time>
      </trkpt>
      <trkpt lat="45.4414" lon="5.5099">
        <ele>540.398315</ele>
        <time>2007-09-09T06:24:48Z</time>
      </trkpt>
      <trkpt lat="45.44112" lon="5.50997">
        <ele>538.956299</ele>
        <time>2007-09-09T06:24:53Z</time>
      </trkpt>
      <trkpt lat="45.44084" lon="5.51005">
        <ele>537.514282</ele>
        <time>2007-09-09T06:24:58Z</time>
      </trkpt>
      <trkpt lat="45.44057" lon="5.51014">
        <ele>537.514282</ele>
        <time>2007-09-09T06:25:03Z</time>
      </trkpt>
      <trkpt lat="45.44029" lon="5.51024">
        <ele>537.994995</ele>
        <time>2007-09-09T06:25:08Z</time>
      </trkpt>
      <trkpt lat="45.43974" lon="5.51037">
        <ele>537.994995</ele>
        <time>2007-09-09T06:25:18Z</time>
      </trkpt>
      <trkpt lat="45.43916" lon="5.51034">
        <ele>538.475708</ele>
        <time>2007-09-09T06:25:30Z</time>
      </trkpt>
      <trkpt lat="45.43888" lon="5.51032">
        <ele>539.43689</ele>
        <time>2007-09-09T06:25:37Z</time>
      </trkpt>
      <trkpt lat="45.43863" lon="5.51031">
        <ele>538.956299</ele>
        <time>2007-09-09T06:25:46Z</time>
      </trkpt>
      <trkpt lat="45.43838" lon="5.51035">
        <ele>539.43689</ele>
        <time>2007-09-09T06:25:54Z</time>
      </trkpt>
      <trkpt lat="45.43812" lon="5.51044">
        <ele>540.878906</ele>
        <time>2007-09-09T06:26:03Z</time>
      </trkpt>
      <trkpt lat="45.43789" lon="5.51059">
        <ele>542.320923</ele>
        <time>2007-09-09T06:26:12Z</time>
      </trkpt>
      <trkpt lat="45.43765" lon="5.51076">
        <ele>541.84021</ele>
        <time>2007-09-09T06:26:21Z</time>
      </trkpt>
      <trkpt lat="45.4374" lon="5.51094">
        <ele>541.359497</ele>
        <time>2007-09-09T06:26:28Z</time>
      </trkpt>
      <trkpt lat="45.43717" lon="5.51127">
        <ele>541.84021</ele>
        <time>2007-09-09T06:26:34Z</time>
      </trkpt>
      <trkpt lat="45.43701" lon="5.51168">
        <ele>540.878906</ele>
        <time>2007-09-09T06:26:39Z</time>
      </trkpt>
      <trkpt lat="45.4367" lon="5.51193">
        <ele>537.514282</ele>
        <time>2007-09-09T06:26:43Z</time>
      </trkpt>
      <trkpt lat="45.43644" lon="5.51208">
        <ele>535.110962</ele>
        <time>2007-09-09T06:26:46Z</time>
      </trkpt>
      <trkpt lat="45.43581" lon="5.51241">
        <ele>532.707764</ele>
        <time>2007-09-09T06:26:54Z</time>
      </trkpt>
      <trkpt lat="45.43548" lon="5.51252">
        <ele>530.304443</ele>
        <time>2007-09-09T06:26:58Z</time>
      </trkpt>
      <trkpt lat="45.43511" lon="5.51254">
        <ele>526.459106</ele>
        <time>2007-09-09T06:27:02Z</time>
      </trkpt>
      <trkpt lat="45.43484" lon="5.51256">
        <ele>524.536499</ele>
        <time>2007-09-09T06:27:05Z</time>
      </trkpt>
      <trkpt lat="45.43456" lon="5.51256">
        <ele>524.055786</ele>
        <time>2007-09-09T06:27:08Z</time>
      </trkpt>
      <trkpt lat="45.43422" lon="5.51249">
        <ele>521.652588</ele>
        <time>2007-09-09T06:27:12Z</time>
      </trkpt>
      <trkpt lat="45.43391" lon="5.51237">
        <ele>518.768555</ele>
        <time>2007-09-09T06:27:16Z</time>
      </trkpt>
      <trkpt lat="45.43363" lon="5.51223">
        <ele>517.807251</ele>
        <time>2007-09-09T06:27:20Z</time>
      </trkpt>
      <trkpt lat="45.43338" lon="5.51224">
        <ele>517.807251</ele>
        <time>2007-09-09T06:27:25Z</time>
      </trkpt>
      <trkpt lat="45.43322" lon="5.51256">
        <ele>516.365234</ele>
        <time>2007-09-09T06:27:30Z</time>
      </trkpt>
      <trkpt lat="45.43322" lon="5.51297">
        <ele>513.481445</ele>
        <time>2007-09-09T06:27:34Z</time>
      </trkpt>
      <trkpt lat="45.43321" lon="5.51372">
        <ele>508.194092</ele>
        <time>2007-09-09T06:27:46Z</time>
      </trkpt>
      <trkpt lat="45.4332" lon="5.51415">
        <ele>505.790894</ele>
        <time>2007-09-09T06:27:52Z</time>
      </trkpt>
      <trkpt lat="45.43316" lon="5.51454">
        <ele>503.868164</ele>
        <time>2007-09-09T06:27:57Z</time>
      </trkpt>
      <trkpt lat="45.43313" lon="5.5149">
        <ele>502.906738</ele>
        <time>2007-09-09T06:28:02Z</time>
      </trkpt>
    </trkseg>
  </trk>
</gpx>